Data for 01/11/2012

Time Sea-Level Adjusted Pressure Absolute Pressure Temperature Relative Humidity Dew Point Precipitation   
(mb) (inHg) (mb) (inHg) (C) (F) (%) (C) (F) (mm) (in)
00:01 1027 30.33 856 25.28 -9.2 15.4 77 -12.5 9.5 -93 -3.661
00:02 1027 30.33 856 25.28 -9.3 15.4 78 -12.5 9.5 -93 -3.661
00:03 1027 30.33 856 25.28 -9.2 15.4 77 -12.6 9.2 -93 -3.661
00:04 1027 30.33 856 25.28 -9.3 15.3 76 -12.8 9 -93 -3.661
00:05 1027 30.33 856 25.28 -9.3 15.3 78 -12.5 9.5 -93 -3.661
00:06 1027 30.33 856 25.28 -9.3 15.2 77 -12.6 9.3 -93 -3.661
00:07 1027 30.33 856 25.28 -9.3 15.2 77 -12.7 9.2 -93 -3.661
00:08 1027 30.33 856 25.28 -9.4 15.2 77 -12.6 9.3 -93 -3.661
00:09 1027 30.33 856 25.28 -9.4 15.2 77 -12.7 9.1 -93 -3.661
00:10 1027 30.33 856 25.28 -9.4 15 78 -12.6 9.3 -93 -3.661
00:11 1027 30.33 856 25.28 -9.4 15.1 77 -12.8 9 -93 -3.661
00:12 1027 30.33 856 25.28 -9.5 15 77 -12.8 9 -93 -3.661
00:13 1027 30.33 856 25.28 -9.5 15 76 -13 8.6 -93 -3.661
00:14 1027 30.33 856 25.28 -9.5 14.9 75 -13.1 8.5 -93 -3.661
00:15 1027 30.33 856 25.28 -9.5 14.9 76 -13 8.6 -93 -3.661
00:16 1027 30.33 856 25.28 -9.5 14.8 76 -13 8.6 -93 -3.661
00:17 1027 30.33 857 25.31 -9.6 14.8 76 -13.1 8.4 -93 -3.661
00:18 1027 30.33 857 25.31 -9.6 14.8 75 -13.2 8.3 -93 -3.661
00:19 1027 30.33 857 25.31 -9.6 14.7 75 -13.2 8.3 -93 -3.661
00:20 1027 30.33 857 25.31 -9.6 14.7 76 -13 8.6 -93 -3.661
00:21 1027 30.33 857 25.31 -9.6 14.7 75 -13.2 8.2 -93 -3.661
00:22 1027 30.33 856 25.28 -9.6 14.6 73 -13.6 7.6 -93 -3.661
00:23 1027 30.33 857 25.31 -9.7 14.6 75 -13.3 8 -93 -3.661
00:24 1027 30.33 857 25.31 -9.7 14.6 73 -13.6 7.5 -93 -3.661
00:25 1027 30.33 857 25.31 -9.7 14.6 73 -13.6 7.4 -93 -3.661
00:26 1027 30.33 856 25.28 -9.7 14.5 74 -13.6 7.5 -93 -3.661
00:27 1027 30.33 857 25.31 -9.7 14.6 72 -13.8 7.2 -93.1 -3.665
00:28 1027 30.33 856 25.28 -9.7 14.5 71 -14.1 6.7 -93.1 -3.665
00:29 1027 30.33 857 25.31 -9.7 14.5 72 -13.8 7.2 -93.1 -3.665
00:30 1027 30.33 857 25.31 -9.7 14.5 72 -13.9 7 -93.1 -3.665
00:31 1027 30.33 857 25.31 -9.8 14.4 72 -13.8 7.1 -93.1 -3.665
00:32 1027 30.33 857 25.31 -9.8 14.4 72 -13.9 7 -93.1 -3.665
00:33 1027 30.33 857 25.31 -9.8 14.4 73 -13.7 7.3 -93.1 -3.665
00:34 1027 30.33 857 25.31 -9.8 14.3 73 -13.8 7.2 -93.1 -3.665
00:35 1027 30.33 857 25.31 -9.8 14.3 74 -13.7 7.4 -93.1 -3.665
00:36 1027 30.33 857 25.31 -9.9 14.2 75 -13.6 7.6 -93.1 -3.665
00:37 1027 30.33 857 25.31 -9.9 14.1 76 -13.5 7.7 -93.1 -3.665
00:38 1027 30.33 857 25.31 -10 14.1 76 -13.4 7.9 -93.1 -3.665
00:39 1027 30.33 857 25.31 -10 14.1 77 -13.2 8.2 -93.1 -3.665
00:40 1027 30.33 857 25.31 -10 14 78 -13.2 8.3 -93.1 -3.665
00:41 1027 30.33 857 25.31 -10 14 79 -13 8.5 -93.1 -3.665
00:42 1027 30.33 857 25.31 -10 14 79 -13 8.6 -93.1 -3.665
00:43 1027 30.33 857 25.31 -10 14 79 -13 8.6 -93.1 -3.665
00:44 1027 30.33 857 25.31 -10 14 79 -12.9 8.8 -93.1 -3.665
00:45 1027 30.33 857 25.31 -10 13.9 79 -13 8.6 -93.1 -3.665
00:46 1027 30.33 857 25.31 -10 13.9 80 -12.9 8.7 -93.1 -3.665
00:47 1027 30.33 857 25.31 -10 14 79 -12.9 8.7 -93.1 -3.665
00:48 1028 30.36 857 25.31 -10 13.9 79 -13 8.5 -93.1 -3.665
00:49 1028 30.36 857 25.31 -10 13.9 79 -13.1 8.5 -93.1 -3.665
00:50 1028 30.36 857 25.31 -10.1 13.9 78 -13.2 8.2 -93.1 -3.665
00:51 1028 30.36 857 25.31 -10.1 13.9 79 -13.1 8.4 -93.1 -3.665
00:52 1028 30.36 857 25.31 -10.1 13.9 79 -13 8.6 -93.1 -3.665
00:53 1028 30.36 857 25.31 -10.1 13.8 79 -13 8.6 -93.1 -3.665
00:54 1028 30.36 857 25.31 -10.1 13.8 78 -13.3 8.1 -93.1 -3.665
00:55 1028 30.36 857 25.31 -10.1 13.8 79 -13.2 8.3 -93.1 -3.665
00:56 1028 30.36 857 25.31 -10.1 13.8 78 -13.3 8.1 -93.1 -3.665
00:57 1028 30.36 857 25.31 -10.1 13.7 78 -13.2 8.2 -93.1 -3.665
00:58 1028 30.36 857 25.31 -10.2 13.7 78 -13.3 8 -93.1 -3.665
00:59 1028 30.36 857 25.31 -10.1 13.7 77 -13.4 7.8 -93.1 -3.665
01:00 1028 30.36 857 25.31 -10.2 13.7 76 -13.6 7.4 -93.1 -3.665
01:01 1028 30.36 857 25.31 -10.2 13.7 76 -13.6 7.5 -93.1 -3.665
01:02 1028 30.36 857 25.31 -10.2 13.7 76 -13.6 7.5 -93.1 -3.665
01:03 1028 30.36 857 25.31 -10.2 13.7 77 -13.5 7.6 -93.1 -3.665
01:04 1028 30.36 857 25.31 -10.2 13.7 77 -13.5 7.7 -93.1 -3.665
01:05 1028 30.36 857 25.31 -10.2 13.7 76 -13.6 7.6 -93.1 -3.665
01:06 1028 30.36 857 25.31 -10.2 13.7 76 -13.7 7.4 -93.1 -3.665
01:07 1028 30.36 857 25.31 -10.2 13.6 77 -13.5 7.6 -93.1 -3.665
01:08 1028 30.36 857 25.31 -10.2 13.6 77 -13.5 7.6 -93.1 -3.665
01:09 1028 30.36 857 25.31 -10.2 13.6 76 -13.7 7.4 -93.1 -3.665
01:10 1028 30.36 857 25.31 -10.2 13.6 76 -13.7 7.4 -93.1 -3.665
01:11 1028 30.36 857 25.31 -10.2 13.6 77 -13.5 7.6 -93.1 -3.665
01:12 1028 30.36 857 25.31 -10.3 13.6 76 -13.7 7.4 -93.1 -3.665
01:13 1028 30.36 857 25.31 -10.3 13.6 77 -13.6 7.5 -93.1 -3.665
01:14 1028 30.36 857 25.31 -10.2 13.6 74 -14 6.8 -93.2 -3.669
01:15 1028 30.36 857 25.31 -10.3 13.5 74 -14 6.8 -93.2 -3.669
01:16 1028 30.36 857 25.31 -10.3 13.5 76 -13.8 7.2 -93.2 -3.669
01:17 1028 30.36 857 25.31 -10.3 13.5 75 -13.9 6.9 -93.2 -3.669
01:18 1028 30.36 857 25.31 -10.3 13.5 75 -13.9 6.9 -93.2 -3.669
01:19 1028 30.36 857 25.31 -10.3 13.5 75 -13.8 7.1 -93.2 -3.669
01:20 1028 30.36 857 25.31 -10.3 13.5 75 -13.9 7 -93.2 -3.669
01:21 1028 30.36 857 25.31 -10.3 13.4 75 -14 6.8 -93.2 -3.669
01:22 1028 30.36 857 25.31 -10.3 13.5 76 -13.8 7.2 -93.2 -3.669
01:23 1028 30.36 857 25.31 -10.3 13.4 78 -13.5 7.7 -93.2 -3.669
01:24 1028 30.36 857 25.31 -10.3 13.5 80 -13.2 8.3 -93.2 -3.669
01:25 1028 30.36 857 25.31 -10.3 13.4 80 -13.2 8.3 -93.2 -3.669
01:26 1028 30.36 857 25.31 -10.3 13.4 80 -13.1 8.4 -93.2 -3.669
01:27 1028 30.36 857 25.31 -10.3 13.4 81 -13.1 8.5 -93.2 -3.669
01:28 1028 30.36 857 25.31 -10.4 13.4 81 -13.1 8.5 -93.2 -3.669
01:29 1028 30.36 857 25.31 -10.4 13.4 81 -13.1 8.5 -93.2 -3.669
01:30 1028 30.36 857 25.31 -10.4 13.3 80 -13.2 8.3 -93.2 -3.669
01:31 1028 30.36 857 25.31 -10.4 13.2 81 -13.1 8.5 -93.2 -3.669
01:32 1028 30.36 857 25.31 -10.4 13.2 81 -13.1 8.4 -93.1 -3.665
01:33 1028 30.36 857 25.31 -10.5 13.2 79 -13.4 7.9 -93.1 -3.665
01:34 1028 30.36 857 25.31 -10.5 13.1 79 -13.5 7.7 -93.2 -3.669
01:35 1028 30.36 857 25.31 -10.5 13.1 78 -13.6 7.5 -93.2 -3.669
01:36 1028 30.36 857 25.31 -10.5 13.1 78 -13.7 7.4 -93.2 -3.669
01:37 1028 30.36 857 25.31 -10.5 13.1 78 -13.7 7.4 -93.2 -3.669
01:38 1028 30.36 857 25.31 -10.5 13.1 77 -13.7 7.3 -93.2 -3.669
01:39 1028 30.36 857 25.31 -10.5 13 77 -13.8 7.2 -93.2 -3.669
01:40 1028 30.36 857 25.31 -10.6 13 78 -13.6 7.5 -93.2 -3.669
01:41 1028 30.36 857 25.31 -10.6 13 77 -13.8 7.1 -93.2 -3.669
01:42 1028 30.36 857 25.31 -10.6 12.9 78 -13.8 7.2 -93.2 -3.669
01:43 1028 30.36 857 25.31 -10.6 13 78 -13.8 7.2 -93.2 -3.669
01:44 1028 30.36 858 25.34 -10.6 12.9 78 -13.7 7.3 -93.2 -3.669
01:45 1028 30.36 858 25.34 -10.6 12.9 77 -13.8 7.1 -93.2 -3.669
01:46 1028 30.36 858 25.34 -10.6 12.9 78 -13.8 7.2 -93.2 -3.669
01:47 1028 30.36 858 25.34 -10.7 12.8 77 -13.9 7 -93.2 -3.669
01:48 1028 30.36 858 25.34 -10.7 12.8 77 -13.9 6.9 -93.2 -3.669
01:49 1028 30.36 858 25.34 -10.7 12.8 76 -14.1 6.7 -93.2 -3.669
01:50 1028 30.36 858 25.34 -10.7 12.8 76 -14.1 6.6 -93.2 -3.669
01:51 1028 30.36 858 25.34 -10.7 12.8 76 -14.1 6.7 -93.2 -3.669
01:52 1028 30.36 858 25.34 -10.7 12.8 77 -14 6.7 -93.2 -3.669
01:53 1028 30.36 858 25.34 -10.7 12.8 78 -13.9 7 -93.2 -3.669
01:54 1028 30.36 858 25.34 -10.7 12.8 76 -14.2 6.4 -93.2 -3.669
01:55 1028 30.36 858 25.34 -10.7 12.8 77 -14.1 6.7 -93.2 -3.669
01:56 1028 30.36 858 25.34 -10.7 12.7 75 -14.3 6.3 -93.2 -3.669
01:57 1028 30.36 858 25.34 -10.7 12.7 75 -14.3 6.2 -93.2 -3.669
01:58 1028 30.36 858 25.34 -10.7 12.7 75 -14.3 6.3 -93.2 -3.669
01:59 1028 30.36 858 25.34 -10.7 12.7 75 -14.3 6.2 -93.2 -3.669
02:00 1028 30.36 858 25.34 -10.8 12.7 75 -14.4 6.1 -93.2 -3.669
02:01 1028 30.36 858 25.34 -10.7 12.7 74 -14.4 6 -93.2 -3.669
02:02 1028 30.36 858 25.34 -10.8 12.7 74 -14.5 6 -93.2 -3.669
02:03 1028 30.36 858 25.34 -10.7 12.7 74 -14.5 5.8 -93.2 -3.669
02:04 1028 30.36 858 25.34 -10.7 12.7 74 -14.4 6 -93.2 -3.669
02:05 1028 30.36 858 25.34 -10.7 12.7 75 -14.4 6.2 -93.3 -3.673
02:06 1028 30.36 858 25.34 -10.7 12.7 74 -14.5 6 -93.3 -3.673
02:07 1029 30.39 858 25.34 -10.7 12.7 75 -14.4 6.1 -93.3 -3.673
02:08 1029 30.39 858 25.34 -10.7 12.7 76 -14.2 6.4 -93.3 -3.673
02:09 1029 30.39 858 25.34 -10.7 12.7 73 -14.6 5.7 -93.3 -3.673
02:10 1029 30.39 858 25.34 -10.8 12.6 73 -14.7 5.6 -93.3 -3.673
02:11 1029 30.39 858 25.34 -10.7 12.7 74 -14.5 5.9 -93.3 -3.673
02:12 1029 30.39 858 25.34 -10.7 12.7 75 -14.4 6 -93.3 -3.673
02:13 1029 30.39 858 25.34 -10.8 12.6 73 -14.7 5.6 -93.3 -3.673
02:14 1029 30.39 858 25.34 -10.8 12.7 72 -14.9 5.2 -93.3 -3.673
02:15 1029 30.39 858 25.34 -10.7 12.7 72 -14.9 5.2 -93.3 -3.673
02:16 1029 30.39 858 25.34 -10.7 12.7 71 -15 5.1 -93.3 -3.673
02:17 1029 30.39 858 25.34 -10.7 12.7 72 -14.9 5.2 -93.3 -3.673
02:18 1029 30.39 858 25.34 -10.7 12.7 71 -15 5.1 -93.3 -3.673
02:19 1029 30.39 858 25.34 -10.8 12.7 70 -15.2 4.7 -93.3 -3.673
02:20 1029 30.39 858 25.34 -10.7 12.7 70 -15.1 4.8 -93.3 -3.673
02:21 1029 30.39 858 25.34 -10.8 12.7 71 -15.1 4.9 -93.3 -3.673
02:22 1029 30.39 858 25.34 -10.8 12.6 72 -14.8 5.3 -93.3 -3.673
02:23 1029 30.39 858 25.34 -10.8 12.6 71 -15.1 4.9 -93.3 -3.673
02:24 1029 30.39 858 25.34 -10.8 12.5 71 -15 4.9 -93.3 -3.673
02:25 1029 30.39 858 25.34 -10.8 12.5 72 -15 5 -93.3 -3.673
02:26 1029 30.39 858 25.34 -10.9 12.5 71 -15.1 4.9 -93.3 -3.673
02:27 1029 30.39 858 25.34 -10.9 12.5 71 -15.1 4.9 -93.3 -3.673
02:28 1029 30.39 858 25.34 -10.9 12.4 72 -15 5.1 -93.3 -3.673
02:29 1029 30.39 858 25.34 -10.9 12.4 69 -15.5 4.2 -93.3 -3.673
02:30 1029 30.39 858 25.34 -10.9 12.4 70 -15.3 4.4 -93.3 -3.673
02:31 1029 30.39 858 25.34 -10.9 12.4 68 -15.6 3.9 -93.3 -3.673
02:32 1029 30.39 858 25.34 -10.9 12.3 71 -15.2 4.6 -93.3 -3.673
02:33 1029 30.39 858 25.34 -10.9 12.3 70 -15.4 4.2 -93.3 -3.673
02:34 1029 30.39 858 25.34 -10.9 12.3 71 -15.3 4.5 -93.3 -3.673
02:35 1029 30.39 858 25.34 -11 12.3 71 -15.3 4.4 -93.3 -3.673
02:36 1029 30.39 858 25.34 -11 12.2 71 -15.3 4.5 -93.3 -3.673
02:37 1029 30.39 858 25.34 -11 12.2 71 -15.3 4.5 -93.3 -3.673
02:38 1029 30.39 858 25.34 -11 12.2 70 -15.5 4.1 -93.3 -3.673
02:39 1029 30.39 858 25.34 -11 12.2 71 -15.4 4.3 -93.3 -3.673
02:40 1029 30.39 858 25.34 -11 12.2 71 -15.4 4.4 -93.3 -3.673
02:41 1029 30.39 858 25.34 -11 12.1 71 -15.3 4.5 -93.3 -3.673
02:42 1029 30.39 858 25.34 -11.1 12.1 71 -15.4 4.4 -93.3 -3.673
02:43 1029 30.39 858 25.34 -11.1 12.1 73 -15 5 -93.3 -3.673
02:44 1029 30.39 858 25.34 -11.1 12 73 -15.1 4.9 -93.3 -3.673
02:45 1029 30.39 858 25.34 -11.1 12 72 -15.1 4.8 -93.3 -3.673
02:46 1029 30.39 858 25.34 -11.1 12 72 -15.2 4.7 -93.3 -3.673
02:47 1029 30.39 858 25.34 -11.1 12 71 -15.3 4.4 -93.3 -3.673
02:48 1029 30.39 858 25.34 -11.1 12 73 -15.1 4.9 -93.3 -3.673
02:49 1029 30.39 858 25.34 -11.1 12 73 -15 4.9 -93.3 -3.673
02:50 1029 30.39 858 25.34 -11.1 11.9 73 -15.1 4.9 -93.3 -3.673
02:51 1029 30.39 858 25.34 -11.1 11.9 73 -15.1 4.8 -93.3 -3.673
02:52 1029 30.39 858 25.34 -11.1 12 73 -15 5 -93.3 -3.673
02:53 1029 30.39 858 25.34 -11.2 11.9 73 -15 5 -93.3 -3.673
02:54 1029 30.39 858 25.34 -11.2 11.9 72 -15.2 4.7 -93.3 -3.673
02:55 1029 30.39 858 25.34 -11.2 11.9 72 -15.2 4.6 -93.3 -3.673
02:56 1029 30.39 858 25.34 -11.1 12 71 -15.3 4.4 -93.3 -3.673
02:57 1029 30.39 858 25.34 -11.2 11.9 72 -15.3 4.5 -93.3 -3.673
02:58 1029 30.39 858 25.34 -11.2 11.9 73 -15 4.9 -93.3 -3.673
02:59 1029 30.39 858 25.34 -11.2 11.9 72 -15.3 4.4 -93.3 -3.673
03:00 1029 30.39 858 25.34 -11.2 11.9 74 -14.9 5.2 -93.4 -3.677
03:01 1029 30.39 858 25.34 -11.2 11.9 73 -15 4.9 -93.3 -3.673
03:02 1029 30.39 858 25.34 -11.2 11.9 72 -15.3 4.5 -93.3 -3.673
03:03 1029 30.39 858 25.34 -11.2 11.9 74 -15 5 -93.4 -3.677
03:04 1029 30.39 858 25.34 -11.2 11.9 73 -15.1 4.9 -93.4 -3.677
03:05 1029 30.39 858 25.34 -11.2 11.8 71 -15.4 4.3 -93.4 -3.677
03:06 1029 30.39 858 25.34 -11.2 11.8 74 -14.9 5.2 -93.4 -3.677
03:07 1029 30.39 858 25.34 -11.2 11.9 73 -15.1 4.8 -93.4 -3.677
03:08 1029 30.39 858 25.34 -11.2 11.9 73 -15.2 4.7 -93.4 -3.677
03:09 1029 30.39 858 25.34 -11.2 11.9 73 -15.2 4.7 -93.4 -3.677
03:10 1029 30.39 858 25.34 -11.2 11.9 73 -15.2 4.7 -93.4 -3.677
03:11 1029 30.39 858 25.34 -11.2 11.9 71 -15.5 4.1 -93.4 -3.677
03:12 1029 30.39 858 25.34 -11.2 11.9 72 -15.3 4.5 -93.4 -3.677
03:13 1029 30.39 858 25.34 -11.2 11.9 71 -15.5 4.1 -93.4 -3.677
03:14 1029 30.39 858 25.34 -11.2 11.8 71 -15.5 4.1 -93.4 -3.677
03:15 1029 30.39 858 25.34 -11.2 11.9 71 -15.5 4.1 -93.4 -3.677
03:16 1029 30.39 858 25.34 -11.2 11.8 71 -15.5 4 -93.4 -3.677
03:17 1029 30.39 858 25.34 -11.2 11.8 71 -15.4 4.2 -93.4 -3.677
03:18 1029 30.39 858 25.34 -11.2 11.9 72 -15.2 4.6 -93.4 -3.677
03:19 1029 30.39 858 25.34 -11.2 11.8 70 -15.6 3.9 -93.4 -3.677
03:20 1029 30.39 858 25.34 -11.2 11.8 70 -15.6 3.9 -93.4 -3.677
03:21 1029 30.39 858 25.34 -11.2 11.8 70 -15.6 3.9 -93.4 -3.677
03:22 1029 30.39 858 25.34 -11.2 11.8 70 -15.7 3.8 -93.4 -3.677
03:23 1029 30.39 858 25.34 -11.2 11.9 71 -15.5 4.1 -93.4 -3.677
03:24 1029 30.39 859 25.37 -11.2 11.8 71 -15.6 4 -93.4 -3.677
03:25 1029 30.39 859 25.37 -11.3 11.7 70 -15.6 3.9 -93.4 -3.677
03:26 1029 30.39 859 25.37 -11.3 11.7 71 -15.5 4.1 -93.4 -3.677
03:27 1029 30.39 859 25.37 -11.3 11.7 71 -15.5 4 -93.4 -3.677
03:28 1029 30.39 859 25.37 -11.3 11.7 70 -15.8 3.6 -93.4 -3.677
03:29 1029 30.39 859 25.37 -11.3 11.7 71 -15.6 4 -93.4 -3.677
03:30 1029 30.39 859 25.37 -11.3 11.6 72 -15.5 4.1 -93.4 -3.677
03:31 1029 30.39 859 25.37 -11.3 11.6 72 -15.5 4.1 -93.4 -3.677
03:32 1029 30.39 859 25.37 -11.3 11.6 73 -15.2 4.6 -93.4 -3.677
03:33 1029 30.39 859 25.37 -11.4 11.6 72 -15.5 4.2 -93.4 -3.677
03:34 1029 30.39 859 25.37 -11.3 11.6 71 -15.6 3.8 -93.4 -3.677
03:35 1029 30.39 859 25.37 -11.3 11.6 69 -15.9 3.3 -93.4 -3.677
03:36 1029 30.39 859 25.37 -11.3 11.6 71 -15.6 4 -93.4 -3.677
03:37 1029 30.39 859 25.37 -11.3 11.6 72 -15.5 4.1 -93.4 -3.677
03:38 1029 30.39 859 25.37 -11.4 11.6 71 -15.6 4 -93.4 -3.677
03:39 1029 30.39 859 25.37 -11.4 11.6 70 -15.7 3.7 -93.4 -3.677
03:40 1029 30.39 859 25.37 -11.4 11.5 72 -15.5 4.1 -93.4 -3.677
03:41 1029 30.39 859 25.37 -11.4 11.5 70 -15.9 3.4 -93.4 -3.677
03:42 1029 30.39 859 25.37 -11.4 11.4 70 -15.9 3.3 -93.4 -3.677
03:43 1029 30.39 859 25.37 -11.4 11.4 69 -16.1 3.1 -93.4 -3.677
03:44 1029 30.39 859 25.37 -11.4 11.4 69 -16.1 3 -93.4 -3.677
03:45 1029 30.39 859 25.37 -11.4 11.4 70 -16 3.3 -93.4 -3.677
03:46 1029 30.39 859 25.37 -11.4 11.4 72 -15.6 3.9 -93.4 -3.677
03:47 1029 30.39 859 25.37 -11.5 11.4 72 -15.5 4.1 -93.4 -3.677
03:48 1029 30.39 859 25.37 -11.5 11.4 73 -15.4 4.2 -93.4 -3.677
03:49 1029 30.39 859 25.37 -11.5 11.4 74 -15.2 4.6 -93.4 -3.677
03:50 1029 30.39 859 25.37 -11.5 11.3 71 -15.7 3.8 -93.4 -3.677
03:51 1030 30.42 859 25.37 -11.5 11.4 73 -15.5 4.1 -93.4 -3.677
03:52 1030 30.42 859 25.37 -11.5 11.4 72 -15.5 4.1 -93.4 -3.677
03:53 1030 30.42 859 25.37 -11.5 11.3 72 -15.6 3.9 -93.4 -3.677
03:54 1030 30.42 859 25.37 -11.5 11.3 72 -15.6 3.9 -93.4 -3.677
03:55 1030 30.42 859 25.37 -11.5 11.3 73 -15.4 4.3 -93.4 -3.677
03:56 1030 30.42 859 25.37 -11.5 11.4 72 -15.5 4 -93.4 -3.677
03:57 1030 30.42 859 25.37 -11.5 11.3 72 -15.5 4.1 -93.4 -3.677
03:58 1030 30.42 859 25.37 -11.5 11.3 72 -15.6 3.9 -93.4 -3.677
03:59 1030 30.42 859 25.37 -11.5 11.3 73 -15.4 4.3 -93.4 -3.677
04:00 1030 30.42 859 25.37 -11.5 11.2 72 -15.6 3.8 -93.4 -3.677
04:01 1030 30.42 859 25.37 -11.5 11.3 71 -15.8 3.5 -93.4 -3.677
04:02 1030 30.42 859 25.37 -11.5 11.2 71 -15.8 3.6 -93.4 -3.677
04:03 1030 30.42 859 25.37 -11.6 11.2 72 -15.7 3.8 -93.5 -3.681
04:04 1030 30.42 859 25.37 -11.6 11.2 71 -15.8 3.6 -93.5 -3.681
04:05 1030 30.42 859 25.37 -11.6 11.2 70 -16 3.1 -93.5 -3.681
04:06 1030 30.42 859 25.37 -11.6 11.2 70 -15.9 3.3 -93.5 -3.681
04:07 1030 30.42 859 25.37 -11.5 11.2 71 -15.9 3.4 -93.5 -3.681
04:08 1030 30.42 859 25.37 -11.5 11.2 69 -16.1 3 -93.5 -3.681
04:09 1030 30.42 859 25.37 -11.6 11.2 70 -16.1 3.1 -93.5 -3.681
04:10 1030 30.42 859 25.37 -11.6 11.2 69 -16.2 2.9 -93.5 -3.681
04:11 1030 30.42 859 25.37 -11.6 11.1 71 -15.8 3.5 -93.5 -3.681
04:12 1030 30.42 859 25.37 -11.6 11.1 71 -15.9 3.4 -93.5 -3.681
04:13 1030 30.42 859 25.37 -11.7 11 69 -16.3 2.6 -93.5 -3.681
04:14 1030 30.42 859 25.37 -11.6 11.1 69 -16.2 2.8 -93.5 -3.681
04:15 1030 30.42 859 25.37 -11.6 11 68 -16.4 2.5 -93.5 -3.681
04:16 1030 30.42 859 25.37 -11.7 11 68 -16.4 2.5 -93.5 -3.681
04:17 1030 30.42 859 25.37 -11.7 10.9 68 -16.5 2.3 -93.5 -3.681
04:18 1030 30.42 859 25.37 -11.7 11 69 -16.3 2.7 -93.5 -3.681
04:19 1030 30.42 859 25.37 -11.7 10.9 69 -16.2 2.8 -93.5 -3.681
04:20 1030 30.42 859 25.37 -11.8 10.8 69 -16.4 2.5 -93.5 -3.681
04:21 1030 30.42 859 25.37 -11.8 10.8 71 -16.1 3 -93.5 -3.681
04:22 1030 30.42 859 25.37 -11.8 10.7 70 -16.2 2.8 -93.5 -3.681
04:23 1030 30.42 859 25.37 -11.9 10.7 70 -16.3 2.7 -93.5 -3.681
04:24 1030 30.42 859 25.37 -11.9 10.7 70 -16.3 2.6 -93.5 -3.681
04:25 1030 30.42 859 25.37 -11.9 10.7 70 -16.4 2.5 -93.5 -3.681
04:26 1030 30.42 859 25.37 -11.9 10.6 71 -16.2 2.8 -93.5 -3.681
04:27 1030 30.42 859 25.37 -11.9 10.5 71 -16.1 3 -93.5 -3.681
04:28 1030 30.42 859 25.37 -12 10.5 72 -16 3.2 -93.5 -3.681
04:29 1030 30.42 859 25.37 -12 10.3 72 -16.1 3.1 -93.5 -3.681
04:30 1030 30.42 859 25.37 -12 10.3 71 -16.3 2.7 -93.5 -3.681
04:31 1030 30.42 859 25.37 -12.1 10.3 72 -16.2 2.9 -93.5 -3.681
04:32 1030 30.42 859 25.37 -12.1 10.3 71 -16.3 2.6 -93.5 -3.681
04:33 1030 30.42 859 25.37 -12 10.3 71 -16.3 2.7 -93.5 -3.681
04:34 1030 30.42 859 25.37 -12 10.3 71 -16.3 2.7 -93.5 -3.681
04:35 1030 30.42 859 25.37 -12 10.4 71 -16.2 2.8 -93.5 -3.681
04:36 1030 30.42 859 25.37 -12.1 10.3 72 -16.1 3 -93.5 -3.681
04:37 1030 30.42 859 25.37 -12.1 10.2 73 -16.1 3 -93.5 -3.681
04:38 1030 30.42 859 25.37 -12.1 10.2 73 -16 3.3 -93.5 -3.681
04:39 1030 30.42 859 25.37 -12.1 10.1 73 -16.1 3 -93.5 -3.681
04:40 1030 30.42 859 25.37 -12.1 10.1 73 -16 3.1 -93.5 -3.681
04:41 1030 30.42 859 25.37 -12.1 10.1 73 -16.1 3 -93.5 -3.681
04:42 1030 30.42 859 25.37 -12.1 10.2 73 -16.1 3.1 -93.5 -3.681
04:43 1030 30.42 859 25.37 -12.1 10.2 72 -16.1 3 -93.5 -3.681
04:44 1030 30.42 859 25.37 -12.1 10.3 72 -16.2 2.8 -93.5 -3.681
04:45 1030 30.42 859 25.37 -12.1 10.3 71 -16.2 2.8 -93.5 -3.681
04:46 1030 30.42 859 25.37 -12.1 10.3 73 -16 3.2 -93.5 -3.681
04:47 1030 30.42 859 25.37 -12.1 10.3 72 -16.1 3 -93.5 -3.681
04:48 1030 30.42 859 25.37 -12 10.3 73 -16 3.2 -93.5 -3.681
04:49 1030 30.42 859 25.37 -12.1 10.2 73 -16 3.3 -93.5 -3.681
04:50 1030 30.42 859 25.37 -12.1 10.2 73 -16.1 3.1 -93.5 -3.681
04:51 1030 30.42 859 25.37 -12.1 10.2 73 -16 3.2 -93.5 -3.681
04:52 1030 30.42 859 25.37 -12.1 10.2 72 -16.1 3 -93.5 -3.681
04:53 1030 30.42 859 25.37 -12.1 10.3 73 -16 3.2 -93.5 -3.681
04:54 1030 30.42 859 25.37 -12.1 10.3 73 -16 3.3 -93.5 -3.681
04:55 1030 30.42 859 25.37 -12.1 10.2 72 -16.2 2.9 -93.5 -3.681
04:56 1030 30.42 859 25.37 -12.1 10.2 73 -16.1 3.1 -93.5 -3.681
04:57 1030 30.42 859 25.37 -12.1 10.2 74 -15.9 3.3 -93.5 -3.681
04:58 1030 30.42 859 25.37 -12.1 10.1 72 -16.1 2.9 -93.5 -3.681
04:59 1030 30.42 859 25.37 -12.1 10.1 72 -16.2 2.9 -93.5 -3.681
05:00 1030 30.42 859 25.37 -12.1 10.1 72 -16.2 2.8 -93.5 -3.681
05:01 1030 30.42 859 25.37 -12.1 10.2 72 -16.1 3 -93.5 -3.681
05:02 1030 30.42 859 25.37 -12.1 10.2 73 -16.1 3 -93.5 -3.681
05:03 1030 30.42 859 25.37 -12.1 10.1 73 -16.1 3 -93.5 -3.681
05:04 1030 30.42 859 25.37 -12.1 10.2 73 -16 3.1 -93.5 -3.681
05:05 1030 30.42 859 25.37 -12.2 10.1 73 -16.1 3 -93.5 -3.681
05:06 1030 30.42 859 25.37 -12.2 10.1 73 -16.1 2.9 -93.5 -3.681
05:07 1030 30.42 859 25.37 -12.1 10.2 71 -16.3 2.7 -93.5 -3.681
05:08 1030 30.42 859 25.37 -12.1 10.2 73 -16 3.2 -93.5 -3.681
05:09 1030 30.42 859 25.37 -12.1 10.2 74 -15.9 3.3 -93.5 -3.681
05:10 1030 30.42 859 25.37 -12.1 10.2 74 -15.9 3.5 -93.5 -3.681
05:11 1030 30.42 859 25.37 -12.1 10.2 74 -15.8 3.5 -93.5 -3.681
05:12 1030 30.42 859 25.37 -12.2 10.1 74 -15.8 3.5 -93.5 -3.681
05:13 1030 30.42 859 25.37 -12.1 10.2 73 -16 3.2 -93.5 -3.681
05:14 1030 30.42 859 25.37 -12.1 10.3 73 -15.9 3.4 -93.5 -3.681
05:15 1030 30.42 859 25.37 -12.1 10.2 75 -15.7 3.7 -93.5 -3.681
05:16 1030 30.42 859 25.37 -12.1 10.2 74 -15.8 3.5 -93.5 -3.681
05:17 1030 30.42 859 25.37 -12.1 10.2 74 -15.8 3.5 -93.5 -3.681
05:18 1030 30.42 859 25.37 -12.1 10.2 74 -15.9 3.4 -93.5 -3.681
05:19 1030 30.42 859 25.37 -12.1 10.2 73 -16 3.2 -93.5 -3.681
05:20 1030 30.42 859 25.37 -12.1 10.3 74 -15.8 3.5 -93.5 -3.681
05:21 1030 30.42 859 25.37 -12.1 10.2 73 -16.1 3.1 -93.5 -3.681
05:22 1030 30.42 859 25.37 -12 10.3 74 -15.8 3.5 -93.5 -3.681
05:23 1030 30.42 859 25.37 -12.1 10.3 74 -15.8 3.6 -93.5 -3.681
05:24 1030 30.42 859 25.37 -12.1 10.3 71 -16.4 2.6 -93.5 -3.681
05:25 1030 30.42 859 25.37 -12 10.4 72 -16 3.1 -93.5 -3.681
05:26 1030 30.42 859 25.37 -12 10.4 72 -16 3.2 -93.5 -3.681
05:27 1030 30.42 859 25.37 -12 10.4 73 -15.9 3.3 -93.5 -3.681
05:28 1030 30.42 859 25.37 -12.1 10.3 74 -15.9 3.4 -93.5 -3.681
05:29 1030 30.42 859 25.37 -12 10.4 73 -15.9 3.4 -93.5 -3.681
05:30 1030 30.42 859 25.37 -12 10.3 74 -15.8 3.6 -93.5 -3.681
05:31 1030 30.42 859 25.37 -12 10.3 74 -15.8 3.6 -93.5 -3.681
05:32 1030 30.42 859 25.37 -12 10.4 73 -16 3.2 -93.5 -3.681
05:33 1030 30.42 859 25.37 -12 10.4 72 -16.1 3.1 -93.5 -3.681
05:34 1030 30.42 859 25.37 -12 10.4 73 -15.9 3.3 -93.5 -3.681
05:35 1030 30.42 859 25.37 -12.1 10.3 72 -16.2 2.9 -93.5 -3.681
05:36 1030 30.42 859 25.37 -12 10.4 73 -15.9 3.4 -93.5 -3.681
05:37 1030 30.42 859 25.37 -12 10.4 71 -16.2 2.8 -93.5 -3.681
05:38 1030 30.42 859 25.37 -12 10.4 70 -16.4 2.5 -93.5 -3.681
05:39 1030 30.42 859 25.37 -12 10.5 71 -16.3 2.7 -93.5 -3.681
05:40 1030 30.42 859 25.37 -12 10.4 72 -16.1 3 -93.5 -3.681
05:41 1030 30.42 859 25.37 -12 10.4 73 -15.9 3.5 -93.5 -3.681
05:42 1030 30.42 859 25.37 -12 10.4 70 -16.4 2.4 -93.5 -3.681
05:43 1030 30.42 859 25.37 -12 10.4 71 -16.2 2.8 -93.5 -3.681
05:44 1030 30.42 859 25.37 -12 10.4 72 -16.1 3 -93.5 -3.681
05:45 1030 30.42 859 25.37 -12 10.3 72 -16.2 2.9 -93.5 -3.681
05:46 1030 30.42 859 25.37 -12 10.4 72 -16.2 2.9 -93.5 -3.681
05:47 1030 30.42 859 25.37 -12 10.4 69 -16.6 2.1 -93.5 -3.681
05:48 1030 30.42 859 25.37 -12 10.4 69 -16.5 2.3 -93.5 -3.681
05:49 1030 30.42 859 25.37 -12 10.4 70 -16.5 2.3 -93.5 -3.681
05:50 1030 30.42 859 25.37 -12 10.4 70 -16.4 2.4 -93.5 -3.681
05:51 1030 30.42 859 25.37 -12.1 10.3 71 -16.3 2.7 -93.5 -3.681
05:52 1030 30.42 859 25.37 -12.1 10.3 71 -16.4 2.6 -93.5 -3.681
05:53 1030 30.42 859 25.37 -12.1 10.3 68 -16.8 1.8 -93.6 -3.685
05:54 1030 30.42 859 25.37 -12 10.3 70 -16.5 2.4 -93.6 -3.685
05:55 1030 30.42 859 25.37 -12 10.4 70 -16.4 2.5 -93.6 -3.685
05:56 1030 30.42 859 25.37 -12 10.3 70 -16.5 2.3 -93.6 -3.685
05:57 1030 30.42 859 25.37 -12 10.4 70 -16.5 2.4 -93.6 -3.685
05:58 1030 30.42 859 25.37 -12 10.4 71 -16.3 2.6 -93.6 -3.685
05:59 1030 30.42 859 25.37 -12 10.4 71 -16.2 2.8 -93.6 -3.685
06:00 1030 30.42 859 25.37 -12.1 10.3 71 -16.4 2.6 -93.6 -3.685
06:01 1030 30.42 859 25.37 -12.1 10.2 71 -16.4 2.4 -93.6 -3.685
06:02 1030 30.42 859 25.37 -12.1 10.2 70 -16.5 2.3 -93.6 -3.685
06:03 1030 30.42 859 25.37 -12.1 10.2 70 -16.5 2.3 -93.6 -3.685
06:04 1030 30.42 859 25.37 -12.1 10.2 69 -16.7 2 -93.6 -3.685
06:05 1030 30.42 859 25.37 -12.1 10.2 68 -16.8 1.7 -93.6 -3.685
06:06 1030 30.42 859 25.37 -12.1 10.3 68 -16.8 1.8 -93.6 -3.685
06:07 1030 30.42 859 25.37 -12.1 10.3 68 -16.8 1.8 -93.6 -3.685
06:08 1030 30.42 859 25.37 -12.1 10.3 68 -16.8 1.8 -93.6 -3.685
06:09 1030 30.42 859 25.37 -12 10.4 69 -16.6 2.2 -93.6 -3.685
06:10 1030 30.42 859 25.37 -12.1 10.3 69 -16.6 2.1 -93.6 -3.685
06:11 1030 30.42 859 25.37 -12.1 10.2 69 -16.6 2 -93.6 -3.685
06:12 1030 30.42 859 25.37 -12.1 10.2 69 -16.7 2 -93.6 -3.685
06:13 1030 30.42 859 25.37 -12.2 10.1 70 -16.5 2.3 -93.6 -3.685
06:14 1030 30.42 859 25.37 -12.2 10.1 70 -16.5 2.3 -93.6 -3.685
06:15 1030 30.42 859 25.37 -12.2 10.1 71 -16.4 2.5 -93.6 -3.685
06:16 1030 30.42 859 25.37 -12.3 9.9 72 -16.4 2.5 -93.6 -3.685
06:17 1030 30.42 859 25.37 -12.3 9.8 73 -16.3 2.7 -93.6 -3.685
06:18 1030 30.42 859 25.37 -12.4 9.7 73 -16.3 2.7 -93.6 -3.685
06:19 1030 30.42 859 25.37 -12.5 9.5 73 -16.4 2.5 -93.6 -3.685
06:20 1030 30.42 859 25.37 -12.6 9.4 73 -16.5 2.4 -93.6 -3.685
06:21 1030 30.42 859 25.37 -12.6 9.3 74 -16.4 2.5 -93.6 -3.685
06:22 1030 30.42 859 25.37 -12.6 9.3 74 -16.3 2.6 -93.6 -3.685
06:23 1030 30.42 859 25.37 -12.7 9.1 74 -16.4 2.6 -93.6 -3.685
06:24 1030 30.42 859 25.37 -12.8 9 74 -16.5 2.3 -93.6 -3.685
06:25 1030 30.42 859 25.37 -12.9 8.8 74 -16.6 2.2 -93.6 -3.685
06:26 1030 30.42 859 25.37 -12.9 8.7 75 -16.6 2.2 -93.6 -3.685
06:27 1030 30.42 859 25.37 -13.1 8.5 74 -16.7 1.9 -93.6 -3.685
06:28 1030 30.42 859 25.37 -13.2 8.3 74 -16.8 1.7 -93.6 -3.685
06:29 1030 30.42 859 25.37 -13.3 8.1 74 -16.9 1.6 -93.6 -3.685
06:30 1030 30.42 859 25.37 -13.3 8 74 -17 1.4 -93.6 -3.685
06:31 1030 30.42 859 25.37 -13.4 8 74 -17.1 1.3 -93.6 -3.685
06:32 1030 30.42 859 25.37 -13.4 7.9 74 -17.1 1.3 -93.6 -3.685
06:33 1030 30.42 859 25.37 -13.4 7.9 74 -17.1 1.2 -93.6 -3.685
06:34 1030 30.42 859 25.37 -13.4 7.8 74 -17.2 1.1 -93.6 -3.685
06:35 1030 30.42 859 25.37 -13.4 7.8 74 -17.2 1.1 -93.6 -3.685
06:36 1030 30.42 859 25.37 -13.4 7.8 74 -17.1 1.2 -93.6 -3.685
06:37 1030 30.42 859 25.37 -13.5 7.8 74 -17.2 1.1 -93.6 -3.685
06:38 1030 30.42 859 25.37 -13.5 7.6 74 -17.2 1 -93.6 -3.685
06:39 1030 30.42 859 25.37 -13.6 7.5 74 -17.3 0.9 -93.6 -3.685
06:40 1029 30.39 859 25.37 -13.7 7.4 74 -17.4 0.8 -93.6 -3.685
06:41 1029 30.39 859 25.37 -13.8 7.2 74 -17.4 0.6 -93.6 -3.685
06:42 1029 30.39 859 25.37 -13.8 7.1 74 -17.5 0.6 -93.6 -3.685
06:43 1029 30.39 859 25.37 -13.9 7.1 74 -17.5 0.5 -93.6 -3.685
06:44 1029 30.39 859 25.37 -13.9 6.9 74 -17.5 0.4 -93.6 -3.685
06:45 1029 30.39 859 25.37 -14.1 6.7 75 -17.6 0.4 -93.6 -3.685
06:46 1029 30.39 859 25.37 -14.2 6.5 76 -17.6 0.3 -93.6 -3.685
06:47 1029 30.39 859 25.37 -14.3 6.3 76 -17.7 0.2 -93.7 -3.689
06:48 1030 30.42 859 25.37 -14.3 6.3 76 -17.7 0.2 -93.7 -3.689
06:49 1030 30.42 859 25.37 -14.3 6.2 76 -17.7 0.2 -93.7 -3.689
06:50 1030 30.42 859 25.37 -14.3 6.2 76 -17.6 0.3 -93.7 -3.689
06:51 1030 30.42 859 25.37 -14.3 6.2 76 -17.6 0.3 -93.7 -3.689
06:52 1030 30.42 859 25.37 -14.4 6.2 77 -17.6 0.3 -93.7 -3.689
06:53 1030 30.42 859 25.37 -14.4 6.1 77 -17.7 0.2 -93.7 -3.689
06:54 1030 30.42 859 25.37 -14.4 6 77 -17.7 0.1 -93.7 -3.689
06:55 1030 30.42 859 25.37 -14.5 5.9 77 -17.7 0.2 -93.7 -3.689
06:56 1030 30.42 859 25.37 -14.5 5.9 78 -17.5 0.4 -93.7 -3.689
06:57 1030 30.42 859 25.37 -14.5 6 79 -17.4 0.6 -93.7 -3.689
06:58 1030 30.42 859 25.37 -14.5 5.9 79 -17.4 0.7 -93.7 -3.689
06:59 1030 30.42 859 25.37 -14.5 6 79 -17.3 0.8 -93.7 -3.689
07:00 1030 30.42 859 25.37 -14.5 6 80 -17.2 1 -93.7 -3.689
07:01 1030 30.42 859 25.37 -14.4 6.1 80 -17.1 1.2 -93.7 -3.689
07:02 1030 30.42 859 25.37 -14.4 6.2 80 -17.1 1.2 -93.7 -3.689
07:03 1030 30.42 859 25.37 -14.3 6.2 80 -17.1 1.2 -93.7 -3.689
07:04 1030 30.42 859 25.37 -14.3 6.4 79 -17.1 1.2 -93.7 -3.689
07:05 1030 30.42 859 25.37 -14.2 6.4 79 -17.1 1.2 -93.7 -3.689
07:06 1030 30.42 859 25.37 -14.2 6.5 80 -17 1.5 -93.7 -3.689
07:07 1030 30.42 859 25.37 -14.2 6.5 80 -16.9 1.6 -93.7 -3.689
07:08 1030 30.42 859 25.37 -14.2 6.4 80 -16.9 1.6 -93.7 -3.689
07:09 1030 30.42 859 25.37 -14.2 6.4 81 -16.8 1.7 -93.7 -3.689
07:10 1030 30.42 859 25.37 -14.2 6.5 81 -16.8 1.7 -93.7 -3.689
07:11 1030 30.42 859 25.37 -14.2 6.5 80 -16.8 1.7 -93.7 -3.689
07:12 1030 30.42 859 25.37 -14.1 6.6 80 -16.8 1.7 -93.7 -3.689
07:13 1030 30.42 859 25.37 -14 6.8 80 -16.8 1.8 -93.7 -3.689
07:14 1030 30.42 859 25.37 -14 6.8 80 -16.7 1.9 -93.7 -3.689
07:15 1030 30.42 859 25.37 -14 6.9 80 -16.7 1.9 -93.7 -3.689
07:16 1030 30.42 859 25.37 -13.9 6.9 80 -16.7 1.9 -93.7 -3.689
07:17 1030 30.42 859 25.37 -13.9 6.9 80 -16.7 2 -93.7 -3.689
07:18 1030 30.42 859 25.37 -14 6.9 80 -16.7 2 -93.7 -3.689
07:19 1030 30.42 859 25.37 -14 6.8 80 -16.8 1.8 -93.7 -3.689
07:20 1030 30.42 859 25.37 -14.1 6.7 80 -16.8 1.7 -93.7 -3.689
07:21 1030 30.42 859 25.37 -14.2 6.5 80 -16.9 1.6 -93.7 -3.689
07:22 1030 30.42 859 25.37 -14.2 6.4 80 -17 1.4 -93.7 -3.689
07:23 1030 30.42 859 25.37 -14.2 6.4 79 -17.1 1.2 -93.7 -3.689
07:24 1030 30.42 859 25.37 -14.3 6.4 79 -17.2 1.1 -93.7 -3.689
07:25 1030 30.42 859 25.37 -14.3 6.4 79 -17.2 1.1 -93.7 -3.689
07:26 1030 30.42 859 25.37 -14.3 6.3 79 -17.1 1.2 -93.7 -3.689
07:27 1030 30.42 859 25.37 -14.3 6.2 80 -17.1 1.3 -93.7 -3.689
07:28 1030 30.42 859 25.37 -14.3 6.3 80 -17.1 1.2 -93.7 -3.689
07:29 1030 30.42 859 25.37 -14.3 6.2 79 -17.3 0.9 -93.7 -3.689
07:30 1030 30.42 859 25.37 -14.4 6 79 -17.4 0.7 -93.7 -3.689
07:31 1030 30.42 859 25.37 -14.5 5.9 79 -17.4 0.6 -93.7 -3.689
07:32 1030 30.42 859 25.37 -14.6 5.8 79 -17.4 0.6 -93.7 -3.689
07:33 1030 30.42 859 25.37 -14.7 5.6 80 -17.5 0.6 -93.7 -3.689
07:34 1030 30.42 859 25.37 -14.7 5.6 80 -17.4 0.6 -93.7 -3.689
07:35 1030 30.42 859 25.37 -14.7 5.5 80 -17.4 0.7 -93.8 -3.693
07:36 1030 30.42 859 25.37 -14.7 5.6 81 -17.3 0.8 -93.8 -3.693
07:37 1030 30.42 859 25.37 -14.7 5.6 81 -17.2 1 -93.8 -3.693
07:38 1030 30.42 859 25.37 -14.7 5.6 81 -17.2 1.1 -93.8 -3.693
07:39 1030 30.42 859 25.37 -14.7 5.6 81 -17.2 1 -93.8 -3.693
07:40 1030 30.42 859 25.37 -14.6 5.7 82 -17.1 1.3 -93.8 -3.693
07:41 1030 30.42 859 25.37 -14.5 5.9 82 -17 1.4 -93.8 -3.693
07:42 1030 30.42 859 25.37 -14.4 6.1 81 -17 1.4 -93.8 -3.693
07:43 1030 30.42 859 25.37 -14.3 6.3 80 -17 1.3 -93.8 -3.693
07:44 1030 30.42 859 25.37 -14.2 6.4 79 -17.1 1.3 -93.8 -3.693
07:45 1030 30.42 859 25.37 -14.2 6.4 79 -17.1 1.2 -93.8 -3.693
07:46 1030 30.42 859 25.37 -14.2 6.5 79 -17.1 1.2 -93.8 -3.693
07:47 1030 30.42 859 25.37 -14.2 6.5 79 -17.1 1.2 -93.8 -3.693
07:48 1030 30.42 859 25.37 -14.3 6.3 79 -17.2 1 -93.8 -3.693
07:49 1030 30.42 859 25.37 -14.3 6.3 79 -17.2 1.1 -93.8 -3.693
07:50 1030 30.42 859 25.37 -14.3 6.3 79 -17.2 1.1 -93.8 -3.693
07:51 1030 30.42 859 25.37 -14.4 6.1 79 -17.3 0.9 -93.8 -3.693
07:52 1030 30.42 859 25.37 -14.4 6.1 79 -17.2 1 -93.8 -3.693
07:53 1030 30.42 859 25.37 -14.5 5.9 80 -17.3 0.9 -93.8 -3.693
07:54 1030 30.42 859 25.37 -14.5 5.9 80 -17.2 1 -93.8 -3.693
07:55 1030 30.42 859 25.37 -14.6 5.8 81 -17.2 1 -93.8 -3.693
07:56 1030 30.42 859 25.37 -14.5 5.9 81 -17.1 1.2 -93.8 -3.693
07:57 1030 30.42 859 25.37 -14.5 5.9 81 -17.2 1.1 -93.8 -3.693
07:58 1030 30.42 859 25.37 -14.5 5.8 80 -17.2 1 -93.8 -3.693
07:59 1030 30.42 859 25.37 -14.5 6 81 -17.1 1.2 -93.8 -3.693
08:00 1030 30.42 859 25.37 -14.5 6 81 -17.1 1.2 -93.8 -3.693
08:01 1030 30.42 859 25.37 -14.4 6.1 81 -17 1.3 -93.8 -3.693
08:02 1030 30.42 859 25.37 -14.4 6.1 81 -17 1.3 -93.8 -3.693
08:03 1030 30.42 859 25.37 -14.4 6.1 81 -17 1.3 -93.8 -3.693
08:04 1030 30.42 859 25.37 -14.4 6.2 80 -17 1.4 -93.8 -3.693
08:05 1030 30.42 859 25.37 -14.4 6.1 80 -17.1 1.2 -93.8 -3.693
08:06 1030 30.42 859 25.37 -14.4 6 80 -17.1 1.2 -93.8 -3.693
08:07 1030 30.42 859 25.37 -14.5 6 80 -17.2 1.1 -93.8 -3.693
08:08 1030 30.42 859 25.37 -14.5 5.9 80 -17.3 0.9 -93.8 -3.693
08:09 1030 30.42 859 25.37 -14.4 6 80 -17.1 1.1 -93.8 -3.693
08:10 1030 30.42 859 25.37 -14.4 6.2 79 -17.2 1.1 -93.8 -3.693
08:11 1030 30.42 859 25.37 -14.2 6.4 79 -17.1 1.1 -93.8 -3.693
08:12 1030 30.42 859 25.37 -14.1 6.7 78 -17.1 1.1 -93.8 -3.693
08:13 1030 30.42 859 25.37 -13.9 7 77 -17.1 1.2 -93.8 -3.693
08:14 1030 30.42 859 25.37 -13.8 7.2 77 -17 1.4 -93.8 -3.693
08:15 1030 30.42 859 25.37 -13.7 7.3 77 -17 1.5 -93.8 -3.693
08:16 1030 30.42 859 25.37 -13.8 7.1 77 -17.1 1.2 -93.8 -3.693
08:17 1030 30.42 859 25.37 -14 6.8 77 -17.1 1.1 -93.8 -3.693
08:18 1030 30.42 859 25.37 -14.1 6.7 78 -17.1 1.2 -93.8 -3.693
08:19 1030 30.42 859 25.37 -14.1 6.6 79 -17.1 1.3 -93.8 -3.693
08:20 1030 30.42 859 25.37 -14.2 6.5 79 -17.1 1.2 -93.8 -3.693
08:21 1030 30.42 859 25.37 -14.2 6.5 79 -17.1 1.3 -93.8 -3.693
08:22 1030 30.42 859 25.37 -14.2 6.5 79 -17 1.4 -93.8 -3.693
08:23 1030 30.42 859 25.37 -14.2 6.5 80 -17 1.5 -93.8 -3.693
08:24 1030 30.42 859 25.37 -14.2 6.5 80 -17 1.4 -93.8 -3.693
08:25 1030 30.42 859 25.37 -14.2 6.5 79 -17 1.3 -93.8 -3.693
08:26 1030 30.42 859 25.37 -14.1 6.7 79 -17 1.3 -93.8 -3.693
08:27 1030 30.42 859 25.37 -14 6.8 78 -17 1.4 -93.8 -3.693
08:28 1030 30.42 859 25.37 -13.9 6.9 78 -17 1.4 -93.8 -3.693
08:29 1030 30.42 859 25.37 -13.9 7 78 -17 1.4 -93.8 -3.693
08:30 1030 30.42 859 25.37 -13.9 7.1 77 -17 1.4 -93.8 -3.693
08:31 1030 30.42 859 25.37 -13.8 7.1 77 -17 1.4 -93.8 -3.693
08:32 1030 30.42 859 25.37 -13.8 7.2 77 -17 1.3 -93.8 -3.693
08:33 1030 30.42 859 25.37 -13.7 7.4 76 -17.1 1.3 -93.8 -3.693
08:34 1030 30.42 859 25.37 -13.6 7.5 75 -17.1 1.2 -93.8 -3.693
08:35 1030 30.42 859 25.37 -13.5 7.6 75 -17.1 1.2 -93.8 -3.693
08:36 1030 30.42 859 25.37 -13.5 7.8 74 -17.1 1.2 -93.8 -3.693
08:37 1030 30.42 859 25.37 -13.4 7.9 74 -17.1 1.2 -93.8 -3.693
08:38 1030 30.42 859 25.37 -13.3 8 74 -17.1 1.2 -93.8 -3.693
08:39 1030 30.42 859 25.37 -13.3 8.1 74 -17 1.3 -93.8 -3.693
08:40 1030 30.42 859 25.37 -13.3 8.2 73 -17 1.3 -93.8 -3.693
08:41 1030 30.42 859 25.37 -13.2 8.2 73 -17.1 1.3 -93.8 -3.693
08:42 1030 30.42 859 25.37 -13.2 8.2 73 -17.1 1.3 -93.8 -3.693
08:43 1030 30.42 859 25.37 -13.2 8.3 73 -17 1.4 -93.8 -3.693
08:44 1030 30.42 859 25.37 -13.1 8.3 73 -17 1.4 -93.8 -3.693
08:45 1030 30.42 859 25.37 -13.1 8.4 74 -16.8 1.8 -93.8 -3.693
08:46 1030 30.42 859 25.37 -13.1 8.4 75 -16.7 1.9 -93.8 -3.693
08:47 1030 30.42 859 25.37 -13.1 8.5 75 -16.7 2 -93.8 -3.693
08:48 1030 30.42 859 25.37 -13 8.5 75 -16.7 2 -93.8 -3.693
08:49 1030 30.42 859 25.37 -13 8.6 74 -16.7 2 -93.8 -3.693
08:50 1030 30.42 859 25.37 -12.9 8.8 74 -16.6 2.1 -93.8 -3.693
08:51 1030 30.42 859 25.37 -12.8 9 73 -16.6 2.1 -93.8 -3.693
08:52 1030 30.42 859 25.37 -12.7 9.1 74 -16.5 2.4 -93.8 -3.693
08:53 1030 30.42 859 25.37 -12.6 9.2 72 -16.7 2 -93.8 -3.693
08:54 1030 30.42 859 25.37 -12.6 9.3 72 -16.7 2 -93.8 -3.693
08:55 1030 30.42 859 25.37 -12.5 9.6 72 -16.6 2.1 -93.8 -3.693
08:56 1030 30.42 859 25.37 -12.4 9.7 72 -16.5 2.2 -93.8 -3.693
08:57 1030 30.42 859 25.37 -12.3 9.9 71 -16.5 2.3 -93.8 -3.693
08:58 1030 30.42 859 25.37 -12.2 10 71 -16.5 2.2 -93.8 -3.693
08:59 1030 30.42 859 25.37 -12.2 10 71 -16.4 2.5 -93.8 -3.693
09:00 1030 30.42 859 25.37 -12.2 10 71 -16.4 2.5 -93.8 -3.693
09:01 1030 30.42 859 25.37 -12.2 10.1 72 -16.3 2.6 -93.7 -3.689
09:02 1030 30.42 859 25.37 -12.2 10 72 -16.2 2.8 -93.7 -3.689
09:03 1030 30.42 859 25.37 -12.1 10.2 73 -15.9 3.3 -93.7 -3.689
09:04 1030 30.42 859 25.37 -11.9 10.5 74 -15.7 3.7 -93.7 -3.689
09:05 1030 30.42 859 25.37 -11.8 10.8 72 -15.9 3.4 -93.7 -3.689
09:06 1030 30.42 859 25.37 -11.9 10.6 69 -16.4 2.5 -93.7 -3.689
09:07 1030 30.42 859 25.37 -12 10.4 69 -16.6 2.2 -93.7 -3.689
09:08 1030 30.42 859 25.37 -12.1 10.1 70 -16.6 2.1 -93.7 -3.689
09:09 1030 30.42 859 25.37 -12.2 10.1 71 -16.3 2.6 -93.7 -3.689
09:10 1030 30.42 859 25.37 -12.2 10.1 69 -16.7 1.9 -93.7 -3.689
09:11 1030 30.42 859 25.37 -12.2 10.1 71 -16.5 2.3 -93.7 -3.689
09:12 1030 30.42 859 25.37 -12.1 10.2 71 -16.3 2.6 -93.7 -3.689
09:13 1030 30.42 859 25.37 -12 10.4 70 -16.3 2.6 -93.7 -3.689
09:14 1030 30.42 859 25.37 -12 10.5 68 -16.7 2 -93.6 -3.685
09:15 1030 30.42 859 25.37 -11.9 10.7 70 -16.2 2.8 -93.6 -3.685
09:16 1030 30.42 859 25.37 -11.8 10.9 68 -16.5 2.3 -93.6 -3.685
09:17 1030 30.42 859 25.37 -11.7 11 68 -16.4 2.5 -93.6 -3.685
09:18 1030 30.42 859 25.37 -11.6 11.1 68 -16.4 2.4 -93.6 -3.685
09:19 1030 30.42 859 25.37 -11.5 11.3 68 -16.3 2.7 -93.6 -3.685
09:20 1030 30.42 859 25.37 -11.5 11.3 66 -16.7 2 -93.6 -3.685
09:21 1030 30.42 859 25.37 -11.6 11.2 66 -16.7 1.9 -93.6 -3.685
09:22 1030 30.42 859 25.37 -11.6 11.2 68 -16.3 2.6 -93.6 -3.685
09:23 1030 30.42 859 25.37 -11.6 11.2 69 -16.2 2.9 -93.6 -3.685
09:24 1030 30.42 859 25.37 -11.6 11.2 67 -16.4 2.4 -93.6 -3.685
09:25 1030 30.42 859 25.37 -11.5 11.3 68 -16.3 2.6 -93.6 -3.685
09:26 1030 30.42 859 25.37 -11.5 11.2 68 -16.4 2.5 -93.6 -3.685
09:27 1030 30.42 859 25.37 -11.7 11 67 -16.6 2.1 -93.6 -3.685
09:28 1030 30.42 859 25.37 -11.8 10.8 68 -16.6 2.1 -93.6 -3.685
09:29 1030 30.42 859 25.37 -11.9 10.6 69 -16.5 2.3 -93.6 -3.685
09:30 1030 30.42 859 25.37 -12 10.4 70 -16.4 2.4 -93.6 -3.685
09:31 1030 30.42 859 25.37 -12 10.3 71 -16.3 2.7 -93.6 -3.685
09:32 1030 30.42 859 25.37 -12 10.4 72 -16 3.2 -93.6 -3.685
09:33 1030 30.42 859 25.37 -11.9 10.5 71 -16.2 2.8 -93.6 -3.685
09:34 1030 30.42 859 25.37 -11.9 10.5 72 -16 3.2 -93.6 -3.685
09:35 1030 30.42 859 25.37 -11.9 10.5 72 -16 3.1 -93.6 -3.685
09:36 1030 30.42 859 25.37 -11.9 10.5 72 -16.1 3 -93.6 -3.685
09:37 1030 30.42 859 25.37 -11.9 10.5 72 -16 3.2 -93.5 -3.681
09:38 1030 30.42 859 25.37 -11.8 10.8 71 -16 3.1 -93.5 -3.681
09:39 1030 30.42 859 25.37 -11.7 10.9 71 -16 3.2 -93.5 -3.681
09:40 1030 30.42 859 25.37 -11.6 11.1 72 -15.7 3.8 -93.5 -3.681
09:41 1030 30.42 859 25.37 -11.5 11.3 73 -15.4 4.2 -93.5 -3.681
09:42 1030 30.42 859 25.37 -11.3 11.6 71 -15.6 3.8 -93.5 -3.681
09:43 1030 30.42 859 25.37 -11.2 11.8 71 -15.5 4.1 -93.5 -3.681
09:44 1030 30.42 859 25.37 -11.1 11.9 70 -15.6 3.9 -93.5 -3.681
09:45 1030 30.42 859 25.37 -11.2 11.9 71 -15.4 4.2 -93.5 -3.681
09:46 1030 30.42 859 25.37 -11.1 11.9 68 -16 3.3 -93.5 -3.681
09:47 1030 30.42 859 25.37 -11.2 11.9 69 -15.7 3.7 -93.5 -3.681
09:48 1030 30.42 859 25.37 -11.2 11.9 68 -15.9 3.4 -93.5 -3.681
09:49 1030 30.42 859 25.37 -11.1 12 68 -15.9 3.5 -93.5 -3.681
09:50 1030 30.42 859 25.37 -11.1 12.1 68 -15.9 3.5 -93.5 -3.681
09:51 1030 30.42 859 25.37 -11 12.1 68 -15.8 3.6 -93.4 -3.677
09:52 1030 30.42 859 25.37 -11 12.2 68 -15.9 3.4 -93.4 -3.677
09:53 1030 30.42 859 25.37 -11.1 12.1 67 -16 3.2 -93.4 -3.677
09:54 1030 30.42 859 25.37 -11.1 12.1 67 -16 3.2 -93.4 -3.677
09:55 1030 30.42 859 25.37 -11.1 12 68 -15.9 3.4 -93.4 -3.677
09:56 1030 30.42 859 25.37 -11.1 12.1 66 -16.3 2.7 -93.4 -3.677
09:57 1030 30.42 859 25.37 -11.1 12 66 -16.2 2.8 -93.4 -3.677
09:58 1030 30.42 859 25.37 -11.1 12.1 66 -16.2 2.8 -93.4 -3.677
09:59 1030 30.42 859 25.37 -11.1 12.1 66 -16.2 2.8 -93.4 -3.677
10:00 1030 30.42 859 25.37 -11.1 12 66 -16.3 2.6 -93.4 -3.677
10:01 1030 30.42 859 25.37 -11.1 12 65 -16.5 2.3 -93.4 -3.677
10:02 1030 30.42 859 25.37 -11.1 12 67 -16.1 2.9 -93.4 -3.677
10:03 1030 30.42 859 25.37 -11 12.3 66 -16.2 2.9 -93.3 -3.673
10:04 1030 30.42 860 25.4 -10.9 12.4 67 -16 3.3 -93.4 -3.677
10:05 1030 30.42 859 25.37 -10.8 12.6 65 -16.2 2.9 -93.3 -3.673
10:06 1030 30.42 860 25.4 -10.8 12.6 65 -16.2 2.8 -93.4 -3.677
10:07 1030 30.42 860 25.4 -10.7 12.7 64 -16.2 2.9 -93.3 -3.673
10:08 1030 30.42 860 25.4 -10.6 12.9 65 -16.1 3.1 -93.3 -3.673
10:09 1030 30.42 860 25.4 -10.6 13 63 -16.3 2.6 -93.3 -3.673
10:10 1030 30.42 860 25.4 -10.5 13 65 -15.8 3.5 -93.3 -3.673
10:11 1030 30.42 860 25.4 -10.4 13.3 63 -16.2 2.9 -93.3 -3.673
10:12 1030 30.42 860 25.4 -10.3 13.4 62 -16.3 2.7 -93.3 -3.673
10:13 1030 30.42 860 25.4 -10.4 13.4 63 -16.2 2.9 -93.3 -3.673
10:14 1030 30.42 860 25.4 -10.3 13.5 63 -16.1 3.1 -93.3 -3.673
10:15 1030 30.42 860 25.4 -10.3 13.5 62 -16.3 2.6 -93.3 -3.673
10:16 1030 30.42 860 25.4 -10.3 13.5 63 -16 3.1 -93.3 -3.673
10:17 1030 30.42 860 25.4 -10.3 13.6 62 -16.1 3 -93.3 -3.673
10:18 1030 30.42 860 25.4 -10.3 13.5 61 -16.4 2.6 -93.3 -3.673
10:19 1030 30.42 860 25.4 -10.4 13.2 62 -16.4 2.6 -93.3 -3.673
10:20 1030 30.42 860 25.4 -10.4 13.4 64 -16 3.3 -93.3 -3.673
10:21 1030 30.42 860 25.4 -10.4 13.4 62 -16.2 2.8 -93.3 -3.673
10:22 1030 30.42 860 25.4 -10.5 13.2 62 -16.5 2.3 -93.3 -3.673
10:23 1030 30.42 860 25.4 -10.5 13.2 63 -16.3 2.7 -93.3 -3.673
10:24 1030 30.42 860 25.4 -10.5 13.1 64 -16.1 3 -93.3 -3.673
10:25 1030 30.42 860 25.4 -10.5 13.2 62 -16.5 2.3 -93.3 -3.673
10:26 1030 30.42 860 25.4 -10.5 13.2 62 -16.4 2.5 -93.3 -3.673
10:27 1030 30.42 860 25.4 -10.3 13.4 64 -16 3.3 -93.3 -3.673
10:28 1030 30.42 860 25.4 -10.3 13.5 62 -16.2 2.8 -93.3 -3.673
10:29 1030 30.42 860 25.4 -10.2 13.6 61 -16.3 2.6 -93.3 -3.673
10:30 1030 30.42 860 25.4 -10.2 13.6 61 -16.5 2.4 -93.2 -3.669
10:31 1030 30.42 860 25.4 -10.2 13.7 59 -16.8 1.8 -93.2 -3.669
10:32 1030 30.42 860 25.4 -10.2 13.6 61 -16.5 2.3 -93.2 -3.669
10:33 1030 30.42 860 25.4 -10.3 13.5 58 -17 1.3 -93.2 -3.669
10:34 1031 30.45 860 25.4 -10.3 13.4 58 -17 1.4 -93.2 -3.669
10:35 1031 30.45 860 25.4 -10.3 13.5 61 -16.5 2.3 -93.2 -3.669
10:36 1030 30.42 860 25.4 -10.1 13.8 59 -16.8 1.8 -93.2 -3.669
10:37 1031 30.45 860 25.4 -10 14 57 -17.1 1.3 -93.2 -3.669
10:38 1030 30.42 860 25.4 -10 13.9 57 -17.1 1.2 -93.2 -3.669
10:39 1031 30.45 860 25.4 -10.1 13.9 58 -16.9 1.6 -93.2 -3.669
10:40 1031 30.45 860 25.4 -10 14 59 -16.6 2.1 -93.2 -3.669
10:41 1031 30.45 860 25.4 -9.9 14.3 58 -16.6 2.1 -93.2 -3.669
10:42 1031 30.45 860 25.4 -9.8 14.5 57 -16.7 1.9 -93.1 -3.665
10:43 1031 30.45 860 25.4 -9.8 14.4 55 -17.1 1.2 -93.1 -3.665
10:44 1030 30.42 860 25.4 -9.9 14.1 56 -17.1 1.2 -93.1 -3.665
10:45 1031 30.45 860 25.4 -10 14.1 57 -16.9 1.5 -93.1 -3.665
10:46 1031 30.45 860 25.4 -10 14.1 57 -16.9 1.5 -93.1 -3.665
10:47 1031 30.45 860 25.4 -10 14.1 56 -17.1 1.2 -93.1 -3.665
10:48 1030 30.42 860 25.4 -9.9 14.3 57 -16.9 1.7 -93.1 -3.665
10:49 1031 30.45 860 25.4 -9.8 14.5 55 -17.1 1.2 -93.1 -3.665
10:50 1030 30.42 860 25.4 -9.5 14.9 56 -16.8 1.7 -93.1 -3.665
10:51 1030 30.42 860 25.4 -9.3 15.2 55 -16.9 1.6 -93.1 -3.665
10:52 1030 30.42 860 25.4 -9.3 15.3 55 -16.9 1.7 -93.1 -3.665
10:53 1030 30.42 860 25.4 -9.3 15.4 54 -16.9 1.6 -93.1 -3.665
10:54 1030 30.42 860 25.4 -9.3 15.4 53 -17.1 1.3 -93 -3.661
10:55 1030 30.42 860 25.4 -9.3 15.2 53 -17.3 0.9 -93 -3.661
10:56 1030 30.42 860 25.4 -9.4 15 54 -17.2 1.1 -93 -3.661
10:57 1030 30.42 860 25.4 -9.4 15 52 -17.5 0.6 -93 -3.661
10:58 1030 30.42 860 25.4 -9.4 15.1 54 -17 1.3 -93 -3.661
10:59 1030 30.42 860 25.4 -9.2 15.5 57 -16.3 2.7 -93 -3.661
11:00 1030 30.42 860 25.4 -9 15.7 54 -16.7 2 -93 -3.661
11:01 1030 30.42 860 25.4 -8.9 15.9 52 -17.1 1.2 -93 -3.661
11:02 1030 30.42 860 25.4 -8.9 16.1 52 -17 1.4 -93 -3.661
11:03 1030 30.42 860 25.4 -8.7 16.3 52 -16.8 1.7 -93 -3.661
11:04 1030 30.42 860 25.4 -8.6 16.4 50 -17.2 1 -93 -3.661
11:05 1030 30.42 859 25.37 -8.4 16.8 50 -17.1 1.2 -93 -3.661
11:06 1030 30.42 859 25.37 -8.3 17.1 50 -17 1.5 -93 -3.661
11:07 1030 30.42 860 25.4 -8.3 17 51 -16.7 1.9 -92.9 -3.657
11:08 1030 30.42 860 25.4 -8.6 16.6 50 -17.3 0.9 -92.9 -3.657
11:09 1030 30.42 859 25.37 -8.8 16.2 51 -17.1 1.2 -93 -3.661
11:10 1030 30.42 859 25.37 -8.8 16.2 52 -16.9 1.6 -93 -3.661
11:11 1030 30.42 859 25.37 -9 15.9 52 -17.2 1 -93 -3.661
11:12 1030 30.42 859 25.37 -9.1 15.6 52 -17.4 0.8 -93 -3.661
11:13 1030 30.42 859 25.37 -9.2 15.5 52 -17.2 1 -93 -3.661
11:14 1030 30.42 859 25.37 -9.1 15.7 53 -17 1.4 -92.9 -3.657
11:15 1030 30.42 859 25.37 -8.9 15.9 53 -16.8 1.7 -92.9 -3.657
11:16 1030 30.42 859 25.37 -8.9 15.9 51 -17.2 1 -92.9 -3.657
11:17 1030 30.42 859 25.37 -8.9 16 52 -17 1.4 -92.9 -3.657
11:18 1030 30.42 859 25.37 -8.8 16.1 52 -17.1 1.2 -92.9 -3.657
11:19 1030 30.42 859 25.37 -8.7 16.3 52 -17 1.4 -92.9 -3.657
11:20 1030 30.42 859 25.37 -8.8 16.2 52 -17 1.4 -92.8 -3.654
11:21 1030 30.42 859 25.37 -8.7 16.3 54 -16.5 2.3 -92.8 -3.654
11:22 1030 30.42 859 25.37 -8.5 16.7 53 -16.4 2.5 -92.8 -3.654
11:23 1030 30.42 859 25.37 -8.5 16.7 52 -16.7 2 -92.8 -3.654
11:24 1030 30.42 859 25.37 -8.5 16.8 51 -16.8 1.8 -92.8 -3.654
11:25 1030 30.42 859 25.37 -8.4 16.9 52 -16.5 2.2 -92.8 -3.654
11:26 1030 30.42 859 25.37 -8.3 17 52 -16.6 2.1 -92.8 -3.654
11:27 1030 30.42 859 25.37 -8.3 17.1 51 -16.8 1.8 -92.8 -3.654
11:28 1030 30.42 859 25.37 -8.3 17.1 53 -16.3 2.6 -92.8 -3.654
11:29 1030 30.42 859 25.37 -8.4 16.9 53 -16.4 2.5 -92.8 -3.654
11:30 1030 30.42 859 25.37 -8.4 16.8 53 -16.4 2.4 -92.8 -3.654
11:31 1030 30.42 859 25.37 -8.4 16.9 52 -16.5 2.3 -92.8 -3.654
11:32 1030 30.42 859 25.37 -8.4 16.8 52 -16.7 2 -92.8 -3.654
11:33 1030 30.42 859 25.37 -8.4 16.8 54 -16.1 2.9 -92.8 -3.654
11:34 1030 30.42 859 25.37 -8.4 16.9 53 -16.5 2.4 -92.8 -3.654
11:35 1030 30.42 859 25.37 -8.4 16.9 52 -16.7 2 -92.8 -3.654
11:36 1030 30.42 859 25.37 -8.4 16.8 53 -16.3 2.6 -92.8 -3.654
11:37 1030 30.42 859 25.37 -8.3 17 53 -16.3 2.7 -92.8 -3.654
11:38 1030 30.42 859 25.37 -8.3 17.1 53 -16.2 2.8 -92.7 -3.65
11:39 1030 30.42 859 25.37 -8.3 17 53 -16.3 2.7 -92.7 -3.65
11:40 1030 30.42 859 25.37 -8.3 17 53 -16.2 2.9 -92.7 -3.65
11:41 1030 30.42 859 25.37 -8.3 17.1 53 -16.2 2.8 -92.7 -3.65
11:42 1030 30.42 859 25.37 -8.3 17.1 53 -16.4 2.5 -92.7 -3.65
11:43 1030 30.42 859 25.37 -8.3 17.1 54 -16 3.3 -92.7 -3.65
11:44 1030 30.42 859 25.37 -8.3 17 54 -16.1 3 -92.7 -3.65
11:45 1030 30.42 859 25.37 -8.2 17.2 53 -16.1 3 -92.7 -3.65
11:46 1030 30.42 859 25.37 -8.2 17.3 54 -16 3.2 -92.7 -3.65
11:47 1030 30.42 859 25.37 -8.1 17.5 53 -16 3.2 -92.7 -3.65
11:48 1030 30.42 859 25.37 -8.1 17.4 54 -15.8 3.5 -92.7 -3.65
11:49 1030 30.42 859 25.37 -8.1 17.4 52 -16.2 2.8 -92.7 -3.65
11:50 1030 30.42 860 25.4 -8.1 17.4 57 -15.3 4.5 -92.6 -3.646
11:51 1030 30.42 859 25.37 -8.1 17.4 57 -15.3 4.5 -92.6 -3.646
11:52 1030 30.42 859 25.37 -8 17.5 54 -15.8 3.6 -92.6 -3.646
11:53 1030 30.42 859 25.37 -7.9 17.7 53 -15.9 3.5 -92.6 -3.646
11:54 1030 30.42 859 25.37 -7.9 17.8 57 -15 4.9 -92.6 -3.646
11:55 1030 30.42 859 25.37 -7.9 17.7 52 -16.2 2.9 -92.6 -3.646
11:56 1030 30.42 859 25.37 -8 17.5 52 -16.2 2.9 -92.6 -3.646
11:57 1030 30.42 859 25.37 -8 17.5 51 -16.4 2.5 -92.6 -3.646
11:58 1030 30.42 859 25.37 -8 17.7 53 -15.9 3.4 -92.6 -3.646
11:59 1030 30.42 859 25.37 -8 17.6 51 -16.4 2.5 -92.6 -3.646
12:00 1030 30.42 859 25.37 -8.1 17.5 50 -16.7 2 -92.6 -3.646
12:01 1030 30.42 859 25.37 -8.1 17.4 55 -15.6 3.9 -92.6 -3.646
12:02 1030 30.42 859 25.37 -8 17.6 52 -16.2 2.9 -92.6 -3.646
12:03 1030 30.42 859 25.37 -7.9 17.8 54 -15.7 3.8 -92.6 -3.646
12:04 1030 30.42 859 25.37 -7.8 17.9 52 -15.9 3.3 -92.6 -3.646
12:05 1030 30.42 859 25.37 -7.9 17.8 51 -16.3 2.7 -92.6 -3.646
12:06 1030 30.42 859 25.37 -7.9 17.8 55 -15.6 4 -92.6 -3.646
12:07 1030 30.42 859 25.37 -7.9 17.9 51 -16.2 2.8 -92.6 -3.646
12:08 1030 30.42 859 25.37 -7.9 17.8 55 -15.5 4.1 -92.6 -3.646
12:09 1030 30.42 859 25.37 -7.9 17.8 52 -16.2 2.9 -92.6 -3.646
12:10 1030 30.42 859 25.37 -7.9 17.8 51 -16.3 2.7 -92.6 -3.646
12:11 1030 30.42 859 25.37 -8 17.7 50 -16.5 2.2 -92.6 -3.646
12:12 1030 30.42 859 25.37 -7.9 17.7 53 -15.9 3.4 -92.6 -3.646
12:13 1030 30.42 859 25.37 -7.8 17.9 50 -16.4 2.5 -92.5 -3.642
12:14 1030 30.42 859 25.37 -7.8 18 53 -15.9 3.5 -92.5 -3.642
12:15 1030 30.42 859 25.37 -7.7 18.1 51 -16.2 2.9 -92.5 -3.642
12:16 1030 30.42 859 25.37 -7.6 18.4 51 -16.1 3 -92.5 -3.642
12:17 1030 30.42 859 25.37 -7.5 18.5 51 -16 3.1 -92.5 -3.642
12:18 1030 30.42 859 25.37 -7.4 18.6 53 -15.5 4.2 -92.5 -3.642
12:19 1030 30.42 859 25.37 -7.4 18.7 50 -16.1 3.1 -92.5 -3.642
12:20 1030 30.42 859 25.37 -7.4 18.6 50 -16.3 2.7 -92.5 -3.642
12:21 1030 30.42 859 25.37 -7.4 18.6 50 -16.1 3 -92.5 -3.642
12:22 1030 30.42 859 25.37 -7.4 18.7 49 -16.4 2.5 -92.5 -3.642
12:23 1030 30.42 859 25.37 -7.4 18.7 48 -16.6 2.1 -92.5 -3.642
12:24 1030 30.42 859 25.37 -7.3 18.9 51 -15.8 3.6 -92.5 -3.642
12:25 1030 30.42 859 25.37 -7.2 19 50 -16.1 3.1 -92.5 -3.642
12:26 1030 30.42 859 25.37 -7.2 19.1 50 -16 3.2 -92.5 -3.642
12:27 1030 30.42 859 25.37 -7.2 19.1 49 -16.2 2.8 -92.5 -3.642
12:28 1030 30.42 859 25.37 -7.2 19 48 -16.4 2.5 -92.5 -3.642
12:29 1030 30.42 859 25.37 -7.2 19.1 51 -15.8 3.6 -92.5 -3.642
12:30 1030 30.42 859 25.37 -7.2 19.1 50 -15.9 3.3 -92.5 -3.642
12:31 1030 30.42 859 25.37 -7.1 19.2 49 -16.1 2.9 -92.5 -3.642
12:32 1030 30.42 859 25.37 -7.2 19.1 47 -16.7 2 -92.5 -3.642
12:33 1030 30.42 859 25.37 -7.2 19 50 -16 3.2 -92.5 -3.642
12:34 1030 30.42 859 25.37 -7.2 19 50 -16 3.2 -92.5 -3.642
12:35 1030 30.42 859 25.37 -7.2 19.1 49 -16.2 2.9 -92.5 -3.642
12:36 1030 30.42 859 25.37 -7.1 19.2 49 -16.1 3 -92.5 -3.642
12:37 1030 30.42 859 25.37 -7 19.3 49 -16 3.2 -92.4 -3.638
12:38 1030 30.42 859 25.37 -7.1 19.3 49 -16 3.1 -92.5 -3.642
12:39 1030 30.42 859 25.37 -7.1 19.2 48 -16.3 2.7 -92.5 -3.642
12:40 1030 30.42 859 25.37 -7.2 19.1 49 -16.2 2.9 -92.5 -3.642
12:41 1030 30.42 859 25.37 -7.2 19 48 -16.5 2.3 -92.5 -3.642
12:42 1030 30.42 859 25.37 -7.3 18.9 48 -16.5 2.3 -92.5 -3.642
12:43 1030 30.42 859 25.37 -7.2 19 48 -16.5 2.2 -92.5 -3.642
12:44 1030 30.42 859 25.37 -7.1 19.2 47 -16.6 2.1 -92.5 -3.642
12:45 1030 30.42 859 25.37 -7.2 19.1 47 -16.6 2.1 -92.5 -3.642
12:46 1030 30.42 859 25.37 -7.1 19.2 51 -15.7 3.8 -92.4 -3.638
12:47 1030 30.42 859 25.37 -7 19.4 49 -16 3.2 -92.4 -3.638
12:48 1030 30.42 859 25.37 -7 19.5 48 -16.2 2.8 -92.4 -3.638
12:49 1030 30.42 859 25.37 -6.9 19.5 48 -16.1 3 -92.4 -3.638
12:50 1030 30.42 859 25.37 -7 19.5 46 -16.7 1.9 -92.5 -3.642
12:51 1030 30.42 859 25.37 -6.9 19.6 45 -16.8 1.8 -92.4 -3.638
12:52 1030 30.42 859 25.37 -6.9 19.6 49 -15.9 3.3 -92.4 -3.638
12:53 1030 30.42 859 25.37 -6.8 19.8 49 -15.8 3.5 -92.4 -3.638
12:54 1030 30.42 859 25.37 -6.8 19.8 47 -16.4 2.5 -92.4 -3.638
12:55 1030 30.42 859 25.37 -6.8 19.8 47 -16.2 2.8 -92.4 -3.638
12:56 1030 30.42 859 25.37 -6.8 19.8 47 -16.4 2.5 -92.4 -3.638
12:57 1030 30.42 859 25.37 -6.9 19.6 46 -16.6 2.2 -92.4 -3.638
12:58 1030 30.42 859 25.37 -6.9 19.5 48 -16.2 2.8 -92.4 -3.638
12:59 1030 30.42 859 25.37 -7 19.4 49 -16.1 3 -92.4 -3.638
13:00 1030 30.42 859 25.37 -7.1 19.3 49 -16.1 3 -92.4 -3.638
13:01 1030 30.42 859 25.37 -7.1 19.2 48 -16.4 2.5 -92.4 -3.638
13:02 1030 30.42 859 25.37 -7.2 19.1 49 -16.1 3 -92.4 -3.638
13:03 1030 30.42 859 25.37 -7.3 18.8 50 -16 3.3 -92.4 -3.638
13:04 1030 30.42 859 25.37 -7.4 18.7 49 -16.4 2.4 -92.4 -3.638
13:05 1030 30.42 859 25.37 -7.5 18.5 50 -16.3 2.6 -92.4 -3.638
13:06 1030 30.42 859 25.37 -7.6 18.4 51 -16.1 3 -92.4 -3.638
13:07 1030 30.42 859 25.37 -7.5 18.5 51 -15.9 3.3 -92.4 -3.638
13:08 1030 30.42 859 25.37 -7.5 18.5 51 -15.9 3.4 -92.4 -3.638
13:09 1030 30.42 859 25.37 -7.5 18.4 49 -16.4 2.4 -92.4 -3.638
13:10 1030 30.42 859 25.37 -7.6 18.3 52 -15.9 3.4 -92.4 -3.638
13:11 1030 30.42 859 25.37 -7.6 18.3 51 -16.1 3.1 -92.4 -3.638
13:12 1030 30.42 859 25.37 -7.6 18.4 51 -16 3.2 -92.4 -3.638
13:13 1030 30.42 859 25.37 -7.5 18.5 51 -15.9 3.4 -92.4 -3.638
13:14 1030 30.42 859 25.37 -7.5 18.5 50 -16.3 2.7 -92.4 -3.638
13:15 1030 30.42 859 25.37 -7.4 18.6 51 -16 3.2 -92.4 -3.638
13:16 1030 30.42 859 25.37 -7.3 18.8 51 -15.7 3.7 -92.4 -3.638
13:17 1030 30.42 859 25.37 -7.2 19 49 -16.2 2.8 -92.4 -3.638
13:18 1030 30.42 859 25.37 -7.2 19.1 50 -16 3.2 -92.4 -3.638
13:19 1030 30.42 859 25.37 -7.2 19 49 -16.2 2.9 -92.4 -3.638
13:20 1030 30.42 859 25.37 -7.4 18.8 50 -16 3.1 -92.4 -3.638
13:21 1030 30.42 859 25.37 -7.4 18.7 52 -15.6 4 -92.4 -3.638
13:22 1030 30.42 859 25.37 -7.4 18.7 48 -16.5 2.3 -92.4 -3.638
13:23 1030 30.42 859 25.37 -7.4 18.7 52 -15.7 3.8 -92.4 -3.638
13:24 1030 30.42 859 25.37 -7.4 18.8 47 -16.9 1.6 -92.4 -3.638
13:25 1030 30.42 859 25.37 -7.4 18.7 52 -15.7 3.7 -92.4 -3.638
13:26 1030 30.42 859 25.37 -7.3 18.8 48 -16.5 2.2 -92.4 -3.638
13:27 1030 30.42 859 25.37 -7.4 18.7 49 -16.4 2.4 -92.4 -3.638
13:28 1030 30.42 859 25.37 -7.4 18.6 49 -16.5 2.3 -92.4 -3.638
13:29 1030 30.42 859 25.37 -7.5 18.5 50 -16.2 2.8 -92.4 -3.638
13:30 1030 30.42 859 25.37 -7.5 18.5 50 -16.3 2.7 -92.4 -3.638
13:31 1030 30.42 859 25.37 -7.6 18.3 49 -16.5 2.3 -92.4 -3.638
13:32 1030 30.42 859 25.37 -7.6 18.3 50 -16.3 2.6 -92.4 -3.638
13:33 1030 30.42 859 25.37 -7.7 18.2 50 -16.4 2.4 -92.4 -3.638
13:34 1030 30.42 859 25.37 -7.6 18.3 51 -16.1 3 -92.4 -3.638
13:35 1030 30.42 859 25.37 -7.6 18.4 49 -16.4 2.4 -92.4 -3.638
13:36 1030 30.42 859 25.37 -7.4 18.6 47 -16.8 1.7 -92.4 -3.638
13:37 1030 30.42 859 25.37 -7.4 18.8 48 -16.5 2.3 -92.4 -3.638
13:38 1030 30.42 859 25.37 -7.2 19 48 -16.4 2.5 -92.4 -3.638
13:39 1030 30.42 859 25.37 -7.1 19.3 49 -16.2 2.9 -92.4 -3.638
13:40 1030 30.42 859 25.37 -6.9 19.6 49 -16 3.2 -92.4 -3.638
13:41 1030 30.42 859 25.37 -6.7 19.9 48 -16.1 3 -92.4 -3.638
13:42 1030 30.42 859 25.37 -6.7 20 48 -16.1 3.1 -92.4 -3.638
13:43 1030 30.42 859 25.37 -6.7 20 46 -16.4 2.4 -92.4 -3.638
13:44 1030 30.42 859 25.37 -6.6 20.1 48 -15.9 3.4 -92.4 -3.638
13:45 1030 30.42 859 25.37 -6.6 20.2 47 -16.1 3 -92.4 -3.638
13:46 1030 30.42 859 25.37 -6.6 20.1 45 -16.8 1.8 -92.4 -3.638
13:47 1030 30.42 859 25.37 -6.7 20 45 -16.9 1.7 -92.4 -3.638
13:48 1030 30.42 859 25.37 -6.6 20.1 46 -16.6 2.2 -92.4 -3.638
13:49 1030 30.42 859 25.37 -6.5 20.2 44 -16.8 1.7 -92.4 -3.638
13:50 1030 30.42 859 25.37 -6.5 20.3 46 -16.4 2.5 -92.4 -3.638
13:51 1030 30.42 859 25.37 -6.4 20.5 47 -15.9 3.4 -92.4 -3.638
13:52 1030 30.42 859 25.37 -6.3 20.7 44 -16.8 1.8 -92.4 -3.638
13:53 1030 30.42 859 25.37 -6.3 20.7 44 -16.8 1.8 -92.4 -3.638
13:54 1030 30.42 859 25.37 -6.1 20.9 45 -16.3 2.6 -92.4 -3.638
13:55 1030 30.42 859 25.37 -6 21.2 46 -15.9 3.4 -92.4 -3.638
13:56 1030 30.42 859 25.37 -5.9 21.4 46 -15.7 3.8 -92.4 -3.638
13:57 1030 30.42 859 25.37 -5.9 21.3 43 -16.6 2.1 -92.4 -3.638
13:58 1030 30.42 859 25.37 -6.1 21.1 44 -16.5 2.3 -92.4 -3.638
13:59 1030 30.42 859 25.37 -6.2 20.9 45 -16.4 2.5 -92.4 -3.638
14:00 1030 30.42 859 25.37 -6.3 20.6 48 -15.6 3.9 -92.4 -3.638
14:01 1030 30.42 859 25.37 -6.3 20.6 48 -15.7 3.7 -92.4 -3.638
14:02 1030 30.42 859 25.37 -6.4 20.6 46 -16.1 3 -92.4 -3.638
14:03 1030 30.42 859 25.37 -6.4 20.5 44 -16.7 2 -92.4 -3.638
14:04 1030 30.42 859 25.37 -6.4 20.4 46 -16.3 2.6 -92.4 -3.638
14:05 1030 30.42 859 25.37 -6.5 20.3 47 -16.1 3 -92.4 -3.638
14:06 1030 30.42 859 25.37 -6.5 20.3 48 -15.9 3.4 -92.4 -3.638
14:07 1030 30.42 859 25.37 -6.4 20.4 46 -16.2 2.8 -92.3 -3.634
14:08 1030 30.42 859 25.37 -6.4 20.5 46 -16.1 2.9 -92.3 -3.634
14:09 1030 30.42 859 25.37 -6.4 20.5 47 -16 3.2 -92.3 -3.634
14:10 1030 30.42 859 25.37 -6.3 20.7 47 -16 3.3 -92.4 -3.638
14:11 1030 30.42 859 25.37 -6.3 20.7 44 -16.5 2.3 -92.4 -3.638
14:12 1030 30.42 859 25.37 -6.3 20.7 44 -16.6 2.1 -92.4 -3.638
14:13 1030 30.42 859 25.37 -6.4 20.5 45 -16.6 2.2 -92.4 -3.638
14:14 1030 30.42 859 25.37 -6.3 20.7 44 -16.6 2.1 -92.3 -3.634
14:15 1030 30.42 859 25.37 -6.4 20.5 44 -16.7 2 -92.4 -3.638
14:16 1030 30.42 859 25.37 -6.4 20.5 46 -16.3 2.7 -92.4 -3.638
14:17 1030 30.42 859 25.37 -6.3 20.6 46 -16.2 2.8 -92.4 -3.638
14:18 1030 30.42 859 25.37 -6.3 20.6 46 -16.1 3.1 -92.3 -3.634
14:19 1030 30.42 859 25.37 -6.5 20.4 48 -15.9 3.4 -92.3 -3.634
14:20 1030 30.42 859 25.37 -6.6 20.2 49 -15.7 3.7 -92.3 -3.634
14:21 1030 30.42 859 25.37 -6.6 20.1 47 -16.1 3 -92.3 -3.634
14:22 1030 30.42 859 25.37 -6.7 20 49 -15.7 3.7 -92.3 -3.634
14:23 1030 30.42 859 25.37 -6.6 20.1 47 -16.1 3.1 -92.3 -3.634
14:24 1030 30.42 859 25.37 -6.7 20 47 -16.1 3.1 -92.3 -3.634
14:25 1030 30.42 859 25.37 -6.7 19.9 48 -15.9 3.3 -92.3 -3.634
14:26 1030 30.42 859 25.37 -6.7 19.9 49 -15.8 3.6 -92.3 -3.634
14:27 1030 30.42 859 25.37 -6.6 20.2 48 -15.8 3.6 -92.3 -3.634
14:28 1030 30.42 859 25.37 -6.4 20.5 48 -15.7 3.8 -92.3 -3.634
14:29 1030 30.42 859 25.37 -6.4 20.5 49 -15.5 4.1 -92.3 -3.634
14:30 1030 30.42 859 25.37 -6.4 20.4 47 -15.9 3.3 -92.3 -3.634
14:31 1030 30.42 859 25.37 -6.4 20.4 47 -16 3.3 -92.3 -3.634
14:32 1030 30.42 859 25.37 -6.3 20.6 47 -15.9 3.3 -92.3 -3.634
14:33 1030 30.42 859 25.37 -6.3 20.6 46 -16.2 2.8 -92.3 -3.634
14:34 1030 30.42 859 25.37 -6.4 20.4 47 -16.1 3.1 -92.3 -3.634
14:35 1030 30.42 859 25.37 -6.5 20.4 47 -16.1 2.9 -92.3 -3.634
14:36 1030 30.42 859 25.37 -6.4 20.5 47 -16.1 3.1 -92.3 -3.634
14:37 1030 30.42 859 25.37 -6.3 20.6 48 -15.7 3.7 -92.3 -3.634
14:38 1030 30.42 859 25.37 -6.3 20.7 47 -16 3.3 -92.3 -3.634
14:39 1030 30.42 859 25.37 -6.2 20.8 46 -16 3.1 -92.3 -3.634
14:40 1030 30.42 859 25.37 -6.3 20.7 48 -15.6 3.9 -92.3 -3.634
14:41 1030 30.42 859 25.37 -6.2 20.8 46 -16 3.1 -92.3 -3.634
14:42 1030 30.42 859 25.37 -6.3 20.7 46 -16 3.3 -92.3 -3.634
14:43 1030 30.42 859 25.37 -6.3 20.7 46 -16.1 2.9 -92.3 -3.634
14:44 1030 30.42 859 25.37 -6.3 20.6 46 -16 3.2 -92.3 -3.634
14:45 1030 30.42 859 25.37 -6.3 20.6 47 -15.9 3.5 -92.3 -3.634
14:46 1030 30.42 859 25.37 -6.3 20.7 46 -16.1 3 -92.3 -3.634
14:47 1030 30.42 859 25.37 -6.3 20.6 46 -16.1 3 -92.3 -3.634
14:48 1030 30.42 859 25.37 -6.3 20.7 46 -16.1 3.1 -92.3 -3.634
14:49 1030 30.42 859 25.37 -6.1 21.1 45 -16.2 2.8 -92.3 -3.634
14:50 1030 30.42 859 25.37 -5.8 21.6 44 -16.1 3.1 -92.3 -3.634
14:51 1030 30.42 859 25.37 -5.6 22 44 -16 3.1 -92.3 -3.634
14:52 1030 30.42 859 25.37 -5.3 22.5 44 -15.7 3.8 -92.2 -3.63
14:53 1030 30.42 859 25.37 -5.1 22.8 43 -15.8 3.6 -92.2 -3.63
14:54 1030 30.42 859 25.37 -5.1 22.9 43 -15.9 3.4 -92.2 -3.63
14:55 1030 30.42 859 25.37 -5.1 22.8 43 -16 3.3 -92.2 -3.63
14:56 1030 30.42 859 25.37 -5.3 22.5 43 -16.1 3.1 -92.2 -3.63
14:57 1030 30.42 859 25.37 -5.5 22.1 44 -15.8 3.6 -92.2 -3.63
14:58 1030 30.42 859 25.37 -5.5 22.1 45 -15.6 3.9 -92.2 -3.63
14:59 1030 30.42 859 25.37 -5.5 22.1 43 -16.1 2.9 -92.2 -3.63
15:00 1030 30.42 859 25.37 -5.6 21.9 44 -16.1 3 -92.2 -3.63
15:01 1030 30.42 859 25.37 -5.6 21.9 44 -16 3.1 -92.2 -3.63
15:02 1030 30.42 859 25.37 -5.7 21.7 46 -15.7 3.8 -92.2 -3.63
15:03 1030 30.42 859 25.37 -5.8 21.5 45 -16 3.1 -92.2 -3.63
15:04 1030 30.42 859 25.37 -5.9 21.3 46 -15.7 3.8 -92.2 -3.63
15:05 1030 30.42 859 25.37 -5.9 21.4 44 -16.2 2.9 -92.2 -3.63
15:06 1030 30.42 859 25.37 -6 21.3 45 -16.1 3 -92.2 -3.63
15:07 1030 30.42 859 25.37 -6 21.2 45 -16.1 3 -92.2 -3.63
15:08 1030 30.42 859 25.37 -6 21.2 45 -16.1 3 -92.2 -3.63
15:09 1030 30.42 859 25.37 -6 21.2 47 -15.6 3.9 -92.2 -3.63
15:10 1030 30.42 859 25.37 -6 21.2 45 -16 3.2 -92.2 -3.63
15:11 1030 30.42 859 25.37 -6 21.3 45 -16 3.1 -92.2 -3.63
15:12 1030 30.42 859 25.37 -6 21.1 45 -16 3.1 -92.2 -3.63
15:13 1030 30.42 859 25.37 -6.1 21 46 -15.9 3.4 -92.2 -3.63
15:14 1030 30.42 859 25.37 -6.2 20.9 46 -16 3.2 -92.2 -3.63
15:15 1030 30.42 859 25.37 -6.1 21 47 -15.8 3.6 -92.2 -3.63
15:16 1030 30.42 859 25.37 -6.1 21.1 45 -16.2 2.8 -92.2 -3.63
15:17 1030 30.42 859 25.37 -6 21.2 46 -15.8 3.6 -92.2 -3.63
15:18 1030 30.42 859 25.37 -6 21.2 46 -15.9 3.4 -92.2 -3.63
15:19 1030 30.42 859 25.37 -6.1 21 44 -16.4 2.5 -92.2 -3.63
15:20 1030 30.42 859 25.37 -6.1 21 45 -16.3 2.7 -92.2 -3.63
15:21 1030 30.42 859 25.37 -6 21.1 46 -15.8 3.5 -92.2 -3.63
15:22 1030 30.42 859 25.37 -6 21.3 45 -16.1 3.1 -92.2 -3.63
15:23 1030 30.42 859 25.37 -5.9 21.4 44 -16.4 2.4 -92.2 -3.63
15:24 1030 30.42 859 25.37 -5.9 21.4 44 -16.4 2.4 -92.2 -3.63
15:25 1030 30.42 859 25.37 -5.9 21.4 45 -16 3.2 -92.2 -3.63
15:26 1030 30.42 859 25.37 -5.9 21.4 45 -16 3.1 -92.2 -3.63
15:27 1030 30.42 859 25.37 -5.9 21.4 45 -16 3.3 -92.2 -3.63
15:28 1029 30.39 859 25.37 -5.9 21.4 45 -16.1 3 -92.2 -3.63
15:29 1029 30.39 859 25.37 -5.9 21.3 45 -16.2 2.9 -92.2 -3.63
15:30 1029 30.39 859 25.37 -6 21.2 47 -15.5 4 -92.2 -3.63
15:31 1029 30.39 859 25.37 -6 21.2 46 -15.8 3.5 -92.2 -3.63
15:32 1029 30.39 859 25.37 -5.9 21.3 44 -16.4 2.5 -92.2 -3.63
15:33 1029 30.39 859 25.37 -6 21.3 45 -16.1 2.9 -92.2 -3.63
15:34 1029 30.39 859 25.37 -6 21.2 44 -16.3 2.7 -92.2 -3.63
15:35 1029 30.39 859 25.37 -6.1 21.1 44 -16.4 2.5 -92.2 -3.63
15:36 1029 30.39 859 25.37 -6.1 21.1 45 -16.3 2.7 -92.2 -3.63
15:37 1029 30.39 859 25.37 -6 21.1 44 -16.4 2.5 -92.2 -3.63
15:38 1029 30.39 859 25.37 -6 21.2 45 -16.1 3 -92.2 -3.63
15:39 1029 30.39 859 25.37 -6.1 21.1 44 -16.3 2.6 -92.2 -3.63
15:40 1029 30.39 859 25.37 -6.2 20.9 45 -16.3 2.6 -92.2 -3.63
15:41 1029 30.39 859 25.37 -6.2 20.8 45 -16.3 2.7 -92.2 -3.63
15:42 1029 30.39 859 25.37 -6.2 20.8 46 -16.1 3.1 -92.2 -3.63
15:43 1029 30.39 859 25.37 -6.2 20.8 46 -15.9 3.3 -92.2 -3.63
15:44 1029 30.39 859 25.37 -6.1 21 46 -16.1 3.1 -92.2 -3.63
15:45 1029 30.39 859 25.37 -6.1 21.1 44 -16.4 2.6 -92.2 -3.63
15:46 1029 30.39 859 25.37 -6.1 21.1 46 -15.9 3.3 -92.2 -3.63
15:47 1029 30.39 859 25.37 -6.1 21 45 -16.1 3 -92.2 -3.63
15:48 1029 30.39 859 25.37 -6.1 21 45 -16.2 2.9 -92.2 -3.63
15:49 1030 30.42 859 25.37 -6.2 20.8 46 -16.1 3 -92.2 -3.63
15:50 1029 30.39 859 25.37 -6.2 20.8 46 -16 3.2 -92.2 -3.63
15:51 1029 30.39 859 25.37 -6.3 20.7 47 -15.8 3.6 -92.2 -3.63
15:52 1029 30.39 859 25.37 -6.2 20.8 48 -15.5 4.1 -92.2 -3.63
15:53 1029 30.39 859 25.37 -6.1 21 45 -16.2 2.9 -92.2 -3.63
15:54 1029 30.39 859 25.37 -6 21.1 46 -16 3.2 -92.2 -3.63
15:55 1029 30.39 859 25.37 -6 21.3 46 -15.7 3.7 -92.2 -3.63
15:56 1029 30.39 859 25.37 -6 21.3 46 -15.9 3.4 -92.2 -3.63
15:57 1029 30.39 859 25.37 -6 21.2 44 -16.3 2.7 -92.2 -3.63
15:58 1029 30.39 859 25.37 -6.1 21.1 45 -16.3 2.6 -92.2 -3.63
15:59 1029 30.39 859 25.37 -6.1 21 47 -15.8 3.6 -92.2 -3.63
16:00 1029 30.39 859 25.37 -6.1 21 47 -15.7 3.7 -92.2 -3.63
16:01 1030 30.42 859 25.37 -6.2 20.9 46 -16 3.3 -92.2 -3.63
16:02 1029 30.39 859 25.37 -6.2 20.9 48 -15.6 3.9 -92.2 -3.63
16:03 1029 30.39 859 25.37 -6.2 20.9 46 -16 3.3 -92.2 -3.63
16:04 1029 30.39 859 25.37 -6.2 20.8 46 -16 3.2 -92.2 -3.63
16:05 1029 30.39 859 25.37 -6.3 20.7 46 -16 3.2 -92.2 -3.63
16:06 1029 30.39 859 25.37 -6.3 20.7 46 -16.1 3 -92.2 -3.63
16:07 1029 30.39 859 25.37 -6.3 20.7 48 -15.7 3.8 -92.2 -3.63
16:08 1029 30.39 859 25.37 -6.3 20.7 46 -16.1 3.1 -92.2 -3.63
16:09 1029 30.39 859 25.37 -6.2 20.8 46 -16 3.2 -92.2 -3.63
16:10 1029 30.39 859 25.37 -6.3 20.7 48 -15.7 3.7 -92.2 -3.63
16:11 1029 30.39 859 25.37 -6.2 20.8 48 -15.5 4.1 -92.2 -3.63
16:12 1029 30.39 859 25.37 -6.2 20.9 48 -15.5 4.1 -92.2 -3.63
16:13 1029 30.39 859 25.37 -6.1 20.9 47 -15.8 3.5 -92.2 -3.63
16:14 1029 30.39 859 25.37 -6.1 21 46 -15.9 3.4 -92.2 -3.63
16:15 1029 30.39 859 25.37 -6.1 21.1 47 -15.8 3.6 -92.2 -3.63
16:16 1029 30.39 859 25.37 -6.1 21.1 48 -15.5 4.1 -92.2 -3.63
16:17 1029 30.39 858 25.34 -6.1 21 46 -15.9 3.4 -92.2 -3.63
16:18 1029 30.39 858 25.34 -6.2 20.9 47 -15.8 3.5 -92.3 -3.634
16:19 1029 30.39 858 25.34 -6.2 20.8 48 -15.6 3.9 -92.3 -3.634
16:20 1029 30.39 858 25.34 -6.3 20.7 49 -15.4 4.2 -92.3 -3.634
16:21 1029 30.39 858 25.34 -6.4 20.5 49 -15.5 4.1 -92.3 -3.634
16:22 1029 30.39 858 25.34 -6.5 20.3 50 -15.2 4.6 -92.3 -3.634
16:23 1029 30.39 858 25.34 -6.6 20.2 51 -15.2 4.7 -92.3 -3.634
16:24 1029 30.39 858 25.34 -6.6 20.2 50 -15.4 4.3 -92.3 -3.634
16:25 1029 30.39 858 25.34 -6.5 20.2 50 -15.4 4.3 -92.3 -3.634
16:26 1029 30.39 858 25.34 -6.4 20.5 49 -15.4 4.3 -92.3 -3.634
16:27 1029 30.39 858 25.34 -6.2 20.8 49 -15.3 4.4 -92.3 -3.634
16:28 1029 30.39 858 25.34 -6.1 21 49 -15.3 4.5 -92.3 -3.634
16:29 1029 30.39 858 25.34 -6.1 21.1 48 -15.3 4.5 -92.3 -3.634
16:30 1029 30.39 858 25.34 -5.9 21.3 48 -15.3 4.4 -92.3 -3.634
16:31 1029 30.39 858 25.34 -5.8 21.5 47 -15.4 4.3 -92.3 -3.634
16:32 1029 30.39 858 25.34 -5.9 21.4 48 -15.2 4.6 -92.3 -3.634
16:33 1029 30.39 858 25.34 -6.2 20.8 49 -15.3 4.5 -92.3 -3.634
16:34 1029 30.39 858 25.34 -6.9 19.6 52 -15.2 4.6 -92.3 -3.634
16:35 1029 30.39 858 25.34 -7.4 18.6 54 -15.3 4.5 -92.3 -3.634
16:36 1029 30.39 858 25.34 -7.8 17.9 55 -15.4 4.4 -92.3 -3.634
16:37 1029 30.39 858 25.34 -8.1 17.3 56 -15.4 4.4 -92.4 -3.638
16:38 1029 30.39 858 25.34 -8.5 16.7 58 -15.4 4.3 -92.4 -3.638
16:39 1029 30.39 858 25.34 -8.6 16.4 59 -15.3 4.4 -92.4 -3.638
16:40 1029 30.39 858 25.34 -8.9 16.1 59 -15.4 4.3 -92.4 -3.638
16:41 1029 30.39 858 25.34 -9 15.8 60 -15.4 4.4 -92.4 -3.638
16:42 1029 30.39 858 25.34 -9.1 15.6 61 -15.4 4.3 -92.4 -3.638
16:43 1029 30.39 858 25.34 -9.2 15.5 62 -15.3 4.5 -92.4 -3.638
16:44 1029 30.39 858 25.34 -9.3 15.2 62 -15.3 4.5 -92.4 -3.638
16:45 1029 30.39 858 25.34 -9.5 14.8 63 -15.3 4.5 -92.4 -3.638
16:46 1029 30.39 858 25.34 -9.7 14.5 65 -15.2 4.6 -92.4 -3.638
16:47 1029 30.39 858 25.34 -9.8 14.4 66 -15.1 4.9 -92.4 -3.638
16:48 1029 30.39 858 25.34 -9.9 14.3 66 -15 5 -92.4 -3.638
16:49 1029 30.39 858 25.34 -9.9 14.2 66 -15.1 4.9 -92.4 -3.638
16:50 1029 30.39 858 25.34 -9.9 14.2 66 -15.2 4.7 -92.4 -3.638
16:51 1029 30.39 858 25.34 -9.9 14.1 66 -15.2 4.6 -92.4 -3.638
16:52 1029 30.39 858 25.34 -10.2 13.7 67 -15.2 4.6 -92.4 -3.638
16:53 1029 30.39 858 25.34 -10.3 13.4 68 -15.2 4.7 -92.4 -3.638
16:54 1029 30.39 858 25.34 -10.6 13 69 -15.2 4.7 -92.4 -3.638
16:55 1029 30.39 858 25.34 -10.7 12.7 70 -15.3 4.5 -92.4 -3.638
16:56 1029 30.39 858 25.34 -10.9 12.3 70 -15.3 4.4 -92.4 -3.638
16:57 1029 30.39 858 25.34 -11.1 12 71 -15.3 4.4 -92.4 -3.638
16:58 1029 30.39 858 25.34 -11.3 11.7 72 -15.3 4.5 -92.5 -3.642
16:59 1029 30.39 858 25.34 -11.4 11.6 73 -15.3 4.5 -92.5 -3.642
17:00 1029 30.39 858 25.34 -11.5 11.3 74 -15.2 4.6 -92.5 -3.642
17:01 1029 30.39 858 25.34 -11.6 11.2 74 -15.2 4.6 -92.5 -3.642
17:02 1029 30.39 858 25.34 -11.6 11.2 75 -15.2 4.6 -92.5 -3.642
17:03 1029 30.39 858 25.34 -11.6 11.2 75 -15.1 4.8 -92.5 -3.642
17:04 1029 30.39 858 25.34 -11.6 11.2 75 -15.1 4.8 -92.5 -3.642
17:05 1029 30.39 858 25.34 -11.6 11.1 75 -15.1 4.8 -92.5 -3.642
17:06 1029 30.39 858 25.34 -11.7 11 75 -15.2 4.7 -92.5 -3.642
17:07 1029 30.39 858 25.34 -11.8 10.8 76 -15.3 4.5 -92.5 -3.642
17:08 1029 30.39 858 25.34 -11.9 10.7 76 -15.2 4.6 -92.5 -3.642
17:09 1029 30.39 858 25.34 -11.9 10.5 77 -15.1 4.7 -92.5 -3.642
17:10 1029 30.39 858 25.34 -11.9 10.6 78 -15 4.9 -92.5 -3.642
17:11 1029 30.39 858 25.34 -11.9 10.7 77 -15.1 4.8 -92.5 -3.642
17:12 1029 30.39 858 25.34 -11.9 10.6 77 -15.2 4.6 -92.5 -3.642
17:13 1029 30.39 858 25.34 -11.9 10.5 76 -15.3 4.4 -92.5 -3.642
17:14 1029 30.39 858 25.34 -12 10.4 77 -15.3 4.4 -92.5 -3.642
17:15 1029 30.39 858 25.34 -12 10.4 77 -15.3 4.4 -92.5 -3.642
17:16 1029 30.39 858 25.34 -12.1 10.3 77 -15.3 4.4 -92.5 -3.642
17:17 1029 30.39 858 25.34 -12.1 10.3 77 -15.3 4.4 -92.6 -3.646
17:18 1029 30.39 858 25.34 -12.1 10.2 76 -15.5 4.1 -92.6 -3.646
17:19 1029 30.39 858 25.34 -12.2 10.1 77 -15.4 4.3 -92.6 -3.646
17:20 1029 30.39 858 25.34 -12.2 10.1 78 -15.3 4.4 -92.6 -3.646
17:21 1029 30.39 858 25.34 -12.2 10.1 78 -15.3 4.4 -92.6 -3.646
17:22 1029 30.39 858 25.34 -12.3 10 78 -15.4 4.3 -92.6 -3.646
17:23 1029 30.39 858 25.34 -12.3 9.8 77 -15.5 4.1 -92.6 -3.646
17:24 1029 30.39 858 25.34 -12.5 9.6 77 -15.6 3.9 -92.6 -3.646
17:25 1029 30.39 858 25.34 -12.6 9.4 79 -15.6 4 -92.7 -3.65
17:26 1029 30.39 858 25.34 -12.6 9.4 79 -15.6 4 -92.7 -3.65
17:27 1029 30.39 858 25.34 -12.7 9.1 79 -15.7 3.7 -92.7 -3.65
17:28 1029 30.39 858 25.34 -12.8 9 79 -15.8 3.6 -92.7 -3.65
17:29 1029 30.39 858 25.34 -12.9 8.8 79 -15.8 3.6 -92.7 -3.65
17:30 1029 30.39 858 25.34 -13 8.7 80 -15.7 3.7 -92.7 -3.65
17:31 1029 30.39 858 25.34 -12.9 8.8 81 -15.6 3.9 -92.7 -3.65
17:32 1029 30.39 858 25.34 -12.8 9 80 -15.6 4 -92.7 -3.65
17:33 1029 30.39 858 25.34 -12.7 9.1 80 -15.5 4.1 -92.7 -3.65
17:34 1029 30.39 858 25.34 -12.6 9.4 79 -15.5 4.2 -92.7 -3.65
17:35 1029 30.39 858 25.34 -12.5 9.6 79 -15.5 4.2 -92.7 -3.65
17:36 1029 30.39 858 25.34 -12.4 9.7 78 -15.4 4.3 -92.7 -3.65
17:37 1029 30.39 858 25.34 -12.3 9.8 78 -15.4 4.3 -92.8 -3.654
17:38 1029 30.39 858 25.34 -12.3 9.9 77 -15.5 4.2 -92.8 -3.654
17:39 1029 30.39 858 25.34 -12.3 9.8 78 -15.5 4.2 -92.8 -3.654
17:40 1029 30.39 858 25.34 -12.3 9.8 78 -15.4 4.2 -92.8 -3.654
17:41 1029 30.39 858 25.34 -12.3 9.9 78 -15.4 4.4 -92.8 -3.654
17:42 1029 30.39 858 25.34 -12.3 9.9 78 -15.4 4.2 -92.8 -3.654
17:43 1029 30.39 858 25.34 -12.4 9.8 77 -15.6 3.9 -92.8 -3.654
17:44 1029 30.39 858 25.34 -12.5 9.4 78 -15.6 3.9 -92.8 -3.654
17:45 1029 30.39 858 25.34 -12.7 9.1 78 -15.8 3.5 -92.8 -3.654
17:46 1029 30.39 858 25.34 -12.9 8.8 79 -15.9 3.5 -92.8 -3.654
17:47 1029 30.39 858 25.34 -13 8.5 80 -15.7 3.7 -92.9 -3.657
17:48 1029 30.39 858 25.34 -13.1 8.4 80 -15.8 3.5 -92.9 -3.657
17:49 1029 30.39 858 25.34 -13.1 8.3 81 -15.8 3.6 -92.9 -3.657
17:50 1029 30.39 858 25.34 -13.2 8.3 81 -15.7 3.7 -92.9 -3.657
17:51 1029 30.39 858 25.34 -13.2 8.3 81 -15.7 3.7 -92.9 -3.657
17:52 1029 30.39 858 25.34 -13.2 8.3 81 -15.8 3.6 -92.9 -3.657
17:53 1029 30.39 858 25.34 -13.2 8.3 82 -15.7 3.8 -92.9 -3.657
17:54 1029 30.39 858 25.34 -13.2 8.3 82 -15.7 3.8 -92.9 -3.657
17:55 1029 30.39 858 25.34 -13.2 8.3 81 -15.7 3.7 -92.9 -3.657
17:56 1029 30.39 858 25.34 -13.2 8.3 82 -15.7 3.8 -92.9 -3.657
17:57 1029 30.39 858 25.34 -13.2 8.3 82 -15.6 3.9 -92.9 -3.657
17:58 1029 30.39 858 25.34 -13.1 8.4 81 -15.7 3.7 -92.9 -3.657
17:59 1029 30.39 858 25.34 -13.1 8.5 81 -15.6 3.9 -93 -3.661
18:00 1029 30.39 858 25.34 -13.1 8.4 80 -15.9 3.4 -93 -3.661
18:01 1029 30.39 858 25.34 -13.2 8.2 79 -16.2 2.9 -93 -3.661
18:02 1029 30.39 858 25.34 -13.4 7.9 80 -16.1 3 -93 -3.661
18:03 1029 30.39 858 25.34 -13.4 7.9 81 -16.1 3.1 -93 -3.661
18:04 1029 30.39 858 25.34 -13.4 7.9 80 -16.1 3 -93 -3.661
18:05 1029 30.39 858 25.34 -13.4 7.9 80 -16.2 2.9 -93 -3.661
18:06 1029 30.39 858 25.34 -13.4 7.9 80 -16.2 2.9 -93 -3.661
18:07 1029 30.39 858 25.34 -13.4 7.8 80 -16.2 2.8 -93 -3.661
18:08 1029 30.39 858 25.34 -13.6 7.6 80 -16.3 2.6 -93 -3.661
18:09 1029 30.39 858 25.34 -13.6 7.6 81 -16.2 2.8 -93 -3.661
18:10 1029 30.39 858 25.34 -13.5 7.8 81 -16.1 3 -93 -3.661
18:11 1029 30.39 858 25.34 -13.3 8.1 80 -16.1 3.1 -93 -3.661
18:12 1029 30.39 858 25.34 -13 8.6 79 -15.9 3.4 -93 -3.661
18:13 1029 30.39 858 25.34 -12.7 9.2 77 -15.9 3.5 -93.1 -3.665
18:14 1029 30.39 858 25.34 -12.4 9.7 76 -15.8 3.6 -93.1 -3.665
18:15 1029 30.39 858 25.34 -12.2 10 76 -15.7 3.8 -93.1 -3.665
18:16 1029 30.39 858 25.34 -12.1 10.3 75 -15.6 3.9 -93.1 -3.665
18:17 1029 30.39 858 25.34 -11.9 10.5 74 -15.6 3.9 -93.1 -3.665
18:18 1029 30.39 858 25.34 -11.8 10.9 73 -15.6 3.9 -93.1 -3.665
18:19 1029 30.39 858 25.34 -11.8 10.9 73 -15.6 3.9 -93.1 -3.665
18:20 1029 30.39 858 25.34 -11.6 11 73 -15.6 4 -93.1 -3.665
18:21 1029 30.39 858 25.34 -11.7 11 73 -15.6 4 -93.1 -3.665
18:22 1029 30.39 858 25.34 -11.7 11 73 -15.6 3.9 -93.1 -3.665
18:23 1029 30.39 858 25.34 -11.6 11.1 72 -15.6 3.8 -93.1 -3.665
18:24 1029 30.39 858 25.34 -11.5 11.2 72 -15.6 3.9 -93.2 -3.669
18:25 1029 30.39 858 25.34 -11.6 11.2 72 -15.7 3.8 -93.2 -3.669
18:26 1029 30.39 858 25.34 -11.5 11.3 72 -15.6 3.8 -93.2 -3.669
18:27 1029 30.39 858 25.34 -11.5 11.3 72 -15.6 3.9 -93.2 -3.669
18:28 1029 30.39 858 25.34 -11.5 11.3 72 -15.7 3.8 -93.2 -3.669
18:29 1029 30.39 858 25.34 -11.6 11.2 72 -15.7 3.8 -93.2 -3.669
18:30 1029 30.39 858 25.34 -11.6 11.1 72 -15.6 3.9 -93.2 -3.669
18:31 1029 30.39 858 25.34 -11.6 11.2 72 -15.7 3.7 -93.2 -3.669
18:32 1029 30.39 858 25.34 -11.6 11.1 72 -15.7 3.8 -93.2 -3.669
18:33 1029 30.39 858 25.34 -11.7 11 73 -15.6 3.9 -93.2 -3.669
18:34 1029 30.39 858 25.34 -11.7 10.9 73 -15.6 3.9 -93.2 -3.669
18:35 1029 30.39 858 25.34 -11.7 11 73 -15.6 3.9 -93.2 -3.669
18:36 1029 30.39 858 25.34 -11.6 11.1 73 -15.6 3.9 -93.2 -3.669
18:37 1029 30.39 858 25.34 -11.7 11 72 -15.7 3.8 -93.2 -3.669
18:38 1029 30.39 858 25.34 -11.7 10.9 72 -15.7 3.7 -93.2 -3.669
18:39 1029 30.39 858 25.34 -11.9 10.6 73 -15.8 3.5 -93.2 -3.669
18:40 1029 30.39 858 25.34 -12 10.5 73 -15.9 3.4 -93.2 -3.669
18:41 1029 30.39 858 25.34 -12 10.4 73 -15.9 3.4 -93.2 -3.669
18:42 1029 30.39 858 25.34 -12.1 10.1 73 -16 3.3 -93.3 -3.673
18:43 1029 30.39 858 25.34 -12.4 9.7 74 -16.1 3.1 -93.3 -3.673
18:44 1029 30.39 858 25.34 -12.5 9.5 75 -16.1 3 -93.3 -3.673
18:45 1029 30.39 858 25.34 -12.7 9.2 75 -16.2 2.9 -93.3 -3.673
18:46 1029 30.39 858 25.34 -12.8 9 76 -16.2 2.8 -93.3 -3.673
18:47 1029 30.39 858 25.34 -12.9 8.7 76 -16.2 2.8 -93.3 -3.673
18:48 1029 30.39 858 25.34 -12.9 8.7 76 -16.3 2.7 -93.3 -3.673
18:49 1029 30.39 858 25.34 -13 8.5 77 -16.3 2.7 -93.3 -3.673
18:50 1029 30.39 858 25.34 -13.1 8.5 77 -16.3 2.7 -93.3 -3.673
18:51 1029 30.39 858 25.34 -13.1 8.4 77 -16.4 2.5 -93.3 -3.673
18:52 1029 30.39 858 25.34 -13.2 8.2 77 -16.5 2.3 -93.3 -3.673
18:53 1029 30.39 858 25.34 -13.3 8 78 -16.5 2.3 -93.3 -3.673
18:54 1029 30.39 858 25.34 -13.5 7.8 78 -16.6 2.2 -93.3 -3.673
18:55 1029 30.39 858 25.34 -13.5 7.7 78 -16.5 2.3 -93.3 -3.673
18:56 1029 30.39 858 25.34 -13.5 7.6 78 -16.6 2.2 -93.3 -3.673
18:57 1029 30.39 858 25.34 -13.5 7.7 78 -16.6 2.1 -93.3 -3.673
18:58 1029 30.39 858 25.34 -13.6 7.5 79 -16.6 2.2 -93.3 -3.673
18:59 1029 30.39 858 25.34 -13.6 7.5 79 -16.5 2.4 -93.3 -3.673
19:00 1029 30.39 858 25.34 -13.5 7.6 79 -16.4 2.5 -93.3 -3.673
19:01 1029 30.39 858 25.34 -13.4 8 79 -16.3 2.6 -93.3 -3.673
19:02 1029 30.39 858 25.34 -13.2 8.2 77 -16.5 2.3 -93.3 -3.673
19:03 1029 30.39 858 25.34 -13.3 8.1 76 -16.7 2 -93.3 -3.673
19:04 1029 30.39 858 25.34 -13.4 7.8 75 -16.9 1.6 -93.3 -3.673
19:05 1029 30.39 858 25.34 -13.6 7.5 76 -16.9 1.6 -93.3 -3.673
19:06 1029 30.39 858 25.34 -13.7 7.3 77 -17 1.4 -93.3 -3.673
19:07 1029 30.39 858 25.34 -13.9 7.1 77 -17.1 1.1 -93.3 -3.673
19:08 1029 30.39 858 25.34 -14 6.8 77 -17.2 1.1 -93.3 -3.673
19:09 1029 30.39 858 25.34 -14.1 6.5 78 -17.2 1.1 -93.3 -3.673
19:10 1029 30.39 858 25.34 -14.1 6.6 78 -17.1 1.2 -93.3 -3.673
19:11 1029 30.39 858 25.34 -14.1 6.6 78 -17.2 1 -93.3 -3.673
19:12 1029 30.39 858 25.34 -14.2 6.5 78 -17.2 1 -93.3 -3.673
19:13 1029 30.39 858 25.34 -14.2 6.5 78 -17.3 0.9 -93.3 -3.673
19:14 1029 30.39 858 25.34 -14.2 6.4 78 -17.2 1 -93.3 -3.673
19:15 1029 30.39 858 25.34 -14.3 6.3 78 -17.4 0.7 -93.3 -3.673
19:16 1029 30.39 858 25.34 -14.4 6.1 78 -17.4 0.7 -93.3 -3.673
19:17 1029 30.39 858 25.34 -14.5 5.9 79 -17.3 0.8 -93.3 -3.673
19:18 1029 30.39 858 25.34 -14.5 5.9 80 -17.3 0.9 -93.3 -3.673
19:19 1029 30.39 858 25.34 -14.5 5.9 80 -17.3 0.9 -93.4 -3.677
19:20 1029 30.39 858 25.34 -14.5 6 79 -17.3 0.9 -93.4 -3.677
19:21 1029 30.39 858 25.34 -14.4 6 80 -17.2 1.1 -93.4 -3.677
19:22 1029 30.39 858 25.34 -14.5 6 80 -17.2 1 -93.4 -3.677
19:23 1029 30.39 858 25.34 -14.5 5.9 80 -17.2 1.1 -93.4 -3.677
19:24 1029 30.39 858 25.34 -14.5 5.9 80 -17.2 1 -93.4 -3.677
19:25 1029 30.39 858 25.34 -14.5 6 80 -17.2 1.1 -93.4 -3.677
19:26 1029 30.39 858 25.34 -14.5 5.9 80 -17.2 1.1 -93.4 -3.677
19:27 1029 30.39 858 25.34 -14.4 6.1 80 -17.1 1.2 -93.4 -3.677
19:28 1029 30.39 858 25.34 -14.3 6.2 80 -17.1 1.2 -93.4 -3.677
19:29 1029 30.39 858 25.34 -14.2 6.4 79 -17.1 1.2 -93.4 -3.677
19:30 1029 30.39 858 25.34 -14.2 6.4 79 -17.1 1.2 -93.4 -3.677
19:31 1029 30.39 858 25.34 -14.3 6.3 79 -17.1 1.2 -93.4 -3.677
19:32 1029 30.39 858 25.34 -14.3 6.3 80 -17.1 1.3 -93.4 -3.677
19:33 1029 30.39 858 25.34 -14.2 6.4 79 -17.2 1.1 -93.4 -3.677
19:34 1029 30.39 858 25.34 -14.3 6.4 78 -17.2 1 -93.4 -3.677
19:35 1029 30.39 858 25.34 -14.4 6.1 78 -17.4 0.7 -93.4 -3.677
19:36 1029 30.39 858 25.34 -14.5 5.9 79 -17.5 0.5 -93.4 -3.677
19:37 1029 30.39 858 25.34 -14.7 5.6 79 -17.5 0.4 -93.4 -3.677
19:38 1029 30.39 858 25.34 -14.7 5.5 80 -17.5 0.5 -93.4 -3.677
19:39 1029 30.39 858 25.34 -14.7 5.5 80 -17.5 0.6 -93.4 -3.677
19:40 1029 30.39 858 25.34 -14.8 5.4 80 -17.6 0.4 -93.4 -3.677
19:41 1029 30.39 858 25.34 -14.9 5.2 80 -17.7 0.2 -93.4 -3.677
19:42 1029 30.39 858 25.34 -15.1 4.9 80 -17.7 0.1 -93.4 -3.677
19:43 1029 30.39 858 25.34 -15.1 4.8 81 -17.6 0.3 -93.4 -3.677
19:44 1029 30.39 858 25.34 -15.1 4.9 82 -17.5 0.5 -93.4 -3.677
19:45 1029 30.39 858 25.34 -15 4.9 82 -17.5 0.5 -93.5 -3.681
19:46 1029 30.39 858 25.34 -15 5.1 82 -17.4 0.6 -93.5 -3.681
19:47 1029 30.39 858 25.34 -14.9 5.2 81 -17.4 0.6 -93.5 -3.681
19:48 1029 30.39 858 25.34 -14.8 5.4 81 -17.4 0.7 -93.5 -3.681
19:49 1029 30.39 858 25.34 -14.8 5.3 81 -17.4 0.6 -93.5 -3.681
19:50 1029 30.39 858 25.34 -14.8 5.3 81 -17.4 0.6 -93.5 -3.681
19:51 1028 30.36 858 25.34 -14.8 5.3 81 -17.4 0.6 -93.5 -3.681
19:52 1028 30.36 858 25.34 -14.8 5.3 81 -17.4 0.6 -93.5 -3.681
19:53 1028 30.36 858 25.34 -14.9 5.3 81 -17.4 0.7 -93.5 -3.681
19:54 1028 30.36 858 25.34 -14.8 5.4 81 -17.4 0.7 -93.5 -3.681
19:55 1028 30.36 858 25.34 -14.7 5.6 81 -17.3 0.8 -93.5 -3.681
19:56 1028 30.36 858 25.34 -14.5 5.9 80 -17.2 1 -93.5 -3.681
19:57 1028 30.36 858 25.34 -14.2 6.4 79 -17.1 1.3 -93.5 -3.681
19:58 1028 30.36 857 25.31 -14 6.9 78 -17 1.3 -93.5 -3.681
19:59 1028 30.36 857 25.31 -13.6 7.5 77 -16.9 1.6 -93.5 -3.681
20:00 1028 30.36 857 25.31 -13.5 7.7 76 -16.9 1.5 -93.5 -3.681
20:01 1028 30.36 857 25.31 -13.5 7.6 76 -16.9 1.5 -93.5 -3.681
20:02 1028 30.36 857 25.31 -13.6 7.6 76 -16.9 1.6 -93.5 -3.681
20:03 1028 30.36 857 25.31 -13.6 7.6 76 -17 1.4 -93.5 -3.681
20:04 1028 30.36 857 25.31 -13.7 7.3 76 -17.1 1.3 -93.5 -3.681
20:05 1028 30.36 857 25.31 -13.8 7.2 77 -17.1 1.3 -93.5 -3.681
20:06 1028 30.36 857 25.31 -13.8 7.1 77 -17 1.4 -93.5 -3.681
20:07 1028 30.36 857 25.31 -13.8 7.1 77 -17.1 1.3 -93.5 -3.681
20:08 1028 30.36 857 25.31 -13.9 7.1 77 -17.1 1.2 -93.5 -3.681
20:09 1028 30.36 857 25.31 -13.9 7 77 -17.1 1.1 -93.5 -3.681
20:10 1028 30.36 857 25.31 -14 6.9 77 -17.1 1.2 -93.5 -3.681
20:11 1028 30.36 857 25.31 -13.9 6.9 77 -17.1 1.2 -93.5 -3.681
20:12 1028 30.36 857 25.31 -13.8 7.2 77 -17.1 1.3 -93.5 -3.681
20:13 1028 30.36 857 25.31 -13.7 7.3 76 -17 1.3 -93.5 -3.681
20:14 1028 30.36 857 25.31 -13.7 7.3 77 -17 1.5 -93.5 -3.681
20:15 1028 30.36 857 25.31 -13.6 7.5 76 -17 1.5 -93.5 -3.681
20:16 1028 30.36 857 25.31 -13.5 7.7 76 -16.9 1.6 -93.5 -3.681
20:17 1028 30.36 857 25.31 -13.5 7.7 76 -16.9 1.6 -93.5 -3.681
20:18 1028 30.36 857 25.31 -13.4 7.8 76 -16.9 1.6 -93.6 -3.685
20:19 1028 30.36 857 25.31 -13.4 7.8 76 -16.8 1.8 -93.6 -3.685
20:20 1028 30.36 857 25.31 -13.3 8 77 -16.6 2.1 -93.6 -3.685
20:21 1028 30.36 857 25.31 -13.3 8.2 76 -16.6 2.2 -93.5 -3.681
20:22 1028 30.36 857 25.31 -13.2 8.3 75 -16.7 2 -93.5 -3.681
20:23 1028 30.36 857 25.31 -13 8.6 75 -16.6 2.1 -93.6 -3.685
20:24 1028 30.36 857 25.31 -12.9 8.8 74 -16.6 2.2 -93.6 -3.685
20:25 1028 30.36 857 25.31 -12.8 9 74 -16.6 2.2 -93.6 -3.685
20:26 1028 30.36 857 25.31 -12.7 9.2 73 -16.6 2.2 -93.6 -3.685
20:27 1028 30.36 857 25.31 -12.5 9.4 73 -16.4 2.4 -93.6 -3.685
20:28 1028 30.36 857 25.31 -12.4 9.8 72 -16.4 2.4 -93.6 -3.685
20:29 1028 30.36 857 25.31 -12.3 9.8 71 -16.5 2.3 -93.6 -3.685
20:30 1028 30.36 857 25.31 -12.4 9.7 72 -16.5 2.3 -93.6 -3.685
20:31 1028 30.36 857 25.31 -12.5 9.6 72 -16.5 2.2 -93.6 -3.685
20:32 1028 30.36 857 25.31 -12.7 9.1 71 -17 1.4 -93.6 -3.685
20:33 1028 30.36 857 25.31 -13.1 8.4 74 -16.8 1.8 -93.6 -3.685
20:34 1028 30.36 857 25.31 -13.2 8.2 75 -16.8 1.7 -93.6 -3.685
20:35 1028 30.36 857 25.31 -13.3 8.1 75 -16.7 1.9 -93.6 -3.685
20:36 1028 30.36 857 25.31 -13.2 8.3 75 -16.7 2 -93.6 -3.685
20:37 1028 30.36 857 25.31 -13 8.6 75 -16.6 2.1 -93.6 -3.685
20:38 1028 30.36 857 25.31 -12.9 8.8 74 -16.6 2.1 -93.6 -3.685
20:39 1028 30.36 857 25.31 -12.6 9.3 72 -16.6 2.1 -93.6 -3.685
20:40 1028 30.36 857 25.31 -12.5 9.6 71 -16.6 2.1 -93.6 -3.685
20:41 1028 30.36 857 25.31 -12.3 9.9 71 -16.5 2.2 -93.6 -3.685
20:42 1028 30.36 857 25.31 -12.2 10 70 -16.6 2.2 -93.6 -3.685
20:43 1028 30.36 857 25.31 -12.2 10.1 70 -16.6 2.1 -93.6 -3.685
20:44 1028 30.36 857 25.31 -12.2 10.1 70 -16.6 2.2 -93.6 -3.685
20:45 1028 30.36 857 25.31 -12.2 10.1 70 -16.6 2.2 -93.6 -3.685
20:46 1028 30.36 857 25.31 -12.2 10 70 -16.6 2.1 -93.6 -3.685
20:47 1028 30.36 857 25.31 -12.2 10 70 -16.7 2 -93.6 -3.685
20:48 1028 30.36 857 25.31 -12.2 10 70 -16.6 2.1 -93.6 -3.685
20:49 1028 30.36 857 25.31 -12.2 10 70 -16.7 2 -93.6 -3.685
20:50 1028 30.36 857 25.31 -12.3 9.9 70 -16.7 2 -93.6 -3.685
20:51 1028 30.36 857 25.31 -12.3 9.9 70 -16.7 1.9 -93.6 -3.685
20:52 1028 30.36 857 25.31 -12.3 9.8 70 -16.7 1.9 -93.6 -3.685
20:53 1028 30.36 857 25.31 -12.4 9.7 70 -16.7 1.9 -93.6 -3.685
20:54 1028 30.36 857 25.31 -12.4 9.7 71 -16.7 1.9 -93.6 -3.685
20:55 1028 30.36 857 25.31 -12.5 9.6 70 -16.9 1.6 -93.6 -3.685
20:56 1028 30.36 857 25.31 -12.6 9.3 71 -16.9 1.6 -93.6 -3.685
20:57 1028 30.36 857 25.31 -12.7 9.2 70 -17.1 1.1 -93.6 -3.685
20:58 1028 30.36 857 25.31 -13 8.7 71 -17.2 1.1 -93.6 -3.685
20:59 1028 30.36 857 25.31 -13.2 8.3 72 -17.3 0.9 -93.6 -3.685
21:00 1028 30.36 857 25.31 -13.3 8 73 -17.2 1 -93.6 -3.685
21:01 1028 30.36 857 25.31 -13.4 8 73 -17.2 1.1 -93.6 -3.685
21:02 1028 30.36 857 25.31 -13.3 8 73 -17.2 1 -93.6 -3.685
21:03 1028 30.36 857 25.31 -13.4 7.9 73 -17.2 1 -93.6 -3.685
21:04 1028 30.36 857 25.31 -13.4 7.8 73 -17.3 0.8 -93.6 -3.685
21:05 1028 30.36 857 25.31 -13.5 7.7 73 -17.4 0.7 -93.6 -3.685
21:06 1028 30.36 857 25.31 -13.6 7.5 74 -17.3 0.8 -93.6 -3.685
21:07 1028 30.36 857 25.31 -13.6 7.6 73 -17.4 0.6 -93.6 -3.685
21:08 1028 30.36 857 25.31 -13.6 7.4 73 -17.4 0.6 -93.6 -3.685
21:09 1028 30.36 857 25.31 -13.7 7.3 74 -17.4 0.6 -93.6 -3.685
21:10 1028 30.36 857 25.31 -13.8 7.2 74 -17.5 0.6 -93.6 -3.685
21:11 1028 30.36 857 25.31 -13.8 7.1 74 -17.5 0.5 -93.6 -3.685
21:12 1028 30.36 857 25.31 -13.9 7.1 74 -17.6 0.4 -93.6 -3.685
21:13 1028 30.36 857 25.31 -13.9 7 74 -17.7 0.2 -93.6 -3.685
21:14 1028 30.36 857 25.31 -14 6.9 74 -17.6 0.2 -93.6 -3.685
21:15 1028 30.36 857 25.31 -13.9 6.9 74 -17.6 0.3 -93.6 -3.685
21:16 1028 30.36 857 25.31 -14 6.9 74 -17.7 0.2 -93.6 -3.685
21:17 1028 30.36 857 25.31 -14 6.9 74 -17.7 0.1 -93.6 -3.685
21:18 1028 30.36 857 25.31 -14 6.8 75 -17.6 0.4 -93.7 -3.689
21:19 1028 30.36 857 25.31 -14 6.8 75 -17.5 0.4 -93.7 -3.689
21:20 1028 30.36 857 25.31 -14 6.8 75 -17.5 0.5 -93.7 -3.689
21:21 1028 30.36 857 25.31 -14 6.8 75 -17.6 0.4 -93.7 -3.689
21:22 1028 30.36 857 25.31 -14 6.9 74 -17.6 0.4 -93.7 -3.689
21:23 1028 30.36 857 25.31 -14 6.8 75 -17.5 0.4 -93.7 -3.689
21:24 1028 30.36 857 25.31 -13.9 6.9 75 -17.5 0.5 -93.7 -3.689
21:25 1028 30.36 857 25.31 -13.8 7.1 75 -17.4 0.6 -93.7 -3.689
21:26 1028 30.36 857 25.31 -13.4 7.8 75 -17 1.4 -93.7 -3.689
21:27 1028 30.36 857 25.31 -13.1 8.5 70 -17.5 0.5 -93.7 -3.689
21:28 1028 30.36 857 25.31 -13.3 8.1 70 -17.7 0.1 -93.7 -3.689
21:29 1028 30.36 857 25.31 -13.6 7.5 71 -17.8 -0.1 -93.7 -3.689
21:30 1028 30.36 857 25.31 -13.9 6.9 72 -18 -0.3 -93.7 -3.689
21:31 1028 30.36 857 25.31 -14.2 6.5 74 -17.8 -0.1 -93.7 -3.689
21:32 1028 30.36 857 25.31 -14.2 6.4 74 -18 -0.3 -93.7 -3.689
21:33 1028 30.36 857 25.31 -14.4 6.1 74 -18.1 -0.6 -93.7 -3.689
21:34 1028 30.36 857 25.31 -14.7 5.6 74 -18.3 -0.9 -93.7 -3.689
21:35 1028 30.36 857 25.31 -14.9 5.2 76 -18.2 -0.8 -93.7 -3.689
21:36 1028 30.36 857 25.31 -15 5 78 -18 -0.5 -93.7 -3.689
21:37 1028 30.36 857 25.31 -14.9 5.2 78 -17.9 -0.2 -93.7 -3.689
21:38 1028 30.36 857 25.31 -14.7 5.5 77 -17.9 -0.2 -93.7 -3.689
21:39 1028 30.36 857 25.31 -14.6 5.7 77 -17.8 -0.1 -93.7 -3.689
21:40 1028 30.36 857 25.31 -14.5 5.9 76 -17.8 -0 -93.7 -3.689
21:41 1028 30.36 857 25.31 -14.4 6 76 -17.8 0 -93.7 -3.689
21:42 1028 30.36 857 25.31 -14.4 6.2 76 -17.7 0.1 -93.7 -3.689
21:43 1028 30.36 857 25.31 -14.4 6.1 76 -17.7 0.1 -93.7 -3.689
21:44 1028 30.36 857 25.31 -14.4 6.2 76 -17.7 0.1 -93.7 -3.689
21:45 1028 30.36 857 25.31 -14.3 6.4 76 -17.6 0.3 -93.7 -3.689
21:46 1028 30.36 857 25.31 -14.2 6.5 76 -17.6 0.4 -93.7 -3.689
21:47 1028 30.36 857 25.31 -14.1 6.6 75 -17.6 0.3 -93.7 -3.689
21:48 1028 30.36 857 25.31 -14.1 6.6 75 -17.6 0.3 -93.7 -3.689
21:49 1028 30.36 857 25.31 -14 6.8 75 -17.5 0.5 -93.7 -3.689
21:50 1028 30.36 857 25.31 -14 6.9 75 -17.6 0.4 -93.7 -3.689
21:51 1028 30.36 857 25.31 -14 6.9 74 -17.7 0.2 -93.7 -3.689
21:52 1028 30.36 857 25.31 -14.1 6.5 76 -17.6 0.4 -93.7 -3.689
21:53 1028 30.36 857 25.31 -14.1 6.6 76 -17.5 0.6 -93.7 -3.689
21:54 1028 30.36 857 25.31 -13.9 6.9 76 -17.3 0.8 -93.7 -3.689
21:55 1028 30.36 857 25.31 -13.7 7.3 75 -17.3 0.9 -93.7 -3.689
21:56 1028 30.36 857 25.31 -13.6 7.6 74 -17.3 0.9 -93.7 -3.689
21:57 1028 30.36 857 25.31 -13.5 7.7 73 -17.4 0.7 -93.7 -3.689
21:58 1028 30.36 857 25.31 -13.6 7.5 74 -17.4 0.7 -93.7 -3.689
21:59 1028 30.36 857 25.31 -13.6 7.5 74 -17.3 0.9 -93.7 -3.689
22:00 1028 30.36 857 25.31 -13.5 7.7 74 -17.3 0.9 -93.7 -3.689
22:01 1028 30.36 857 25.31 -13.4 7.8 73 -17.3 0.9 -93.7 -3.689
22:02 1028 30.36 857 25.31 -13.4 8 73 -17.2 1 -93.7 -3.689
22:03 1028 30.36 857 25.31 -13.3 8.1 73 -17.2 1.1 -93.7 -3.689
22:04 1028 30.36 857 25.31 -13.2 8.3 72 -17.1 1.2 -93.7 -3.689
22:05 1028 30.36 857 25.31 -13.1 8.4 72 -17.1 1.1 -93.7 -3.689
22:06 1028 30.36 857 25.31 -13.3 8.1 72 -17.4 0.7 -93.7 -3.689
22:07 1028 30.36 857 25.31 -13.5 7.6 72 -17.5 0.4 -93.7 -3.689
22:08 1028 30.36 857 25.31 -13.9 7.1 73 -17.7 0.1 -93.7 -3.689
22:09 1028 30.36 857 25.31 -14.1 6.6 74 -17.8 -0.1 -93.7 -3.689
22:10 1028 30.36 857 25.31 -14.3 6.2 75 -17.9 -0.2 -93.7 -3.689
22:11 1028 30.36 857 25.31 -14.4 6 75 -17.9 -0.2 -93.7 -3.689
22:12 1028 30.36 857 25.31 -14.5 6 76 -17.9 -0.2 -93.7 -3.689
22:13 1028 30.36 857 25.31 -14.5 5.8 76 -17.9 -0.2 -93.7 -3.689
22:14 1028 30.36 857 25.31 -14.6 5.8 76 -17.9 -0.2 -93.7 -3.689
22:15 1028 30.36 857 25.31 -14.6 5.8 76 -17.9 -0.2 -93.7 -3.689
22:16 1028 30.36 857 25.31 -14.5 5.9 76 -17.8 -0.1 -93.8 -3.693
22:17 1027 30.33 857 25.31 -14.5 5.9 76 -17.8 -0 -93.8 -3.693
22:18 1027 30.33 857 25.31 -14.4 6 76 -17.8 -0 -93.8 -3.693
22:19 1027 30.33 857 25.31 -14.4 6.1 76 -17.8 0 -93.7 -3.689
22:20 1027 30.33 857 25.31 -14.3 6.2 75 -17.8 -0 -93.8 -3.693
22:21 1027 30.33 857 25.31 -14.3 6.2 75 -17.8 -0 -93.8 -3.693
22:22 1027 30.33 857 25.31 -14.4 6.1 76 -17.8 -0.1 -93.7 -3.689
22:23 1027 30.33 857 25.31 -14.5 6 76 -17.8 -0.1 -93.8 -3.693
22:24 1028 30.36 857 25.31 -14.4 6 77 -17.7 0.2 -93.8 -3.693
22:25 1027 30.33 857 25.31 -14.3 6.3 76 -17.6 0.3 -93.7 -3.689
22:26 1027 30.33 857 25.31 -14.3 6.3 76 -17.6 0.2 -93.7 -3.689
22:27 1027 30.33 857 25.31 -14.3 6.2 76 -17.6 0.2 -93.7 -3.689
22:28 1028 30.36 857 25.31 -14.4 6.2 77 -17.6 0.3 -93.7 -3.689
22:29 1027 30.33 857 25.31 -14.3 6.2 76 -17.6 0.3 -93.7 -3.689
22:30 1027 30.33 857 25.31 -14.4 6.2 76 -17.7 0.2 -93.7 -3.689
22:31 1028 30.36 857 25.31 -14.4 6.2 76 -17.7 0.2 -93.8 -3.693
22:32 1027 30.33 857 25.31 -14.4 6 76 -17.7 0.1 -93.8 -3.693
22:33 1027 30.33 857 25.31 -14.6 5.8 77 -17.8 0 -93.8 -3.693
22:34 1027 30.33 857 25.31 -14.5 5.9 77 -17.8 0 -93.8 -3.693
22:35 1027 30.33 857 25.31 -14.5 5.9 77 -17.8 0 -93.8 -3.693
22:36 1027 30.33 857 25.31 -14.5 6 77 -17.7 0.1 -93.8 -3.693
22:37 1027 30.33 857 25.31 -14.5 6 77 -17.7 0.1 -93.8 -3.693
22:38 1027 30.33 857 25.31 -14.4 6.1 76 -17.7 0.1 -93.8 -3.693
22:39 1027 30.33 857 25.31 -14.4 6 76 -17.7 0.1 -93.8 -3.693
22:40 1027 30.33 857 25.31 -14.5 6 77 -17.7 0.1 -93.8 -3.693
22:41 1027 30.33 857 25.31 -14.5 5.9 77 -17.8 0 -93.8 -3.693
22:42 1027 30.33 857 25.31 -14.6 5.8 77 -17.8 0 -93.8 -3.693
22:43 1027 30.33 856 25.28 -14.6 5.8 77 -17.7 0.1 -93.8 -3.693
22:44 1027 30.33 856 25.28 -14.6 5.8 78 -17.6 0.2 -93.8 -3.693
22:45 1027 30.33 856 25.28 -14.6 5.7 78 -17.6 0.3 -93.8 -3.693
22:46 1027 30.33 856 25.28 -14.6 5.8 78 -17.6 0.4 -93.8 -3.693
22:47 1027 30.33 856 25.28 -14.6 5.8 78 -17.6 0.3 -93.8 -3.693
22:48 1027 30.33 856 25.28 -14.6 5.8 78 -17.6 0.3 -93.8 -3.693
22:49 1027 30.33 856 25.28 -14.6 5.7 78 -17.6 0.3 -93.8 -3.693
22:50 1027 30.33 856 25.28 -14.6 5.8 78 -17.6 0.3 -93.8 -3.693
22:51 1027 30.33 856 25.28 -14.7 5.6 78 -17.7 0.2 -93.8 -3.693
22:52 1027 30.33 856 25.28 -14.7 5.5 79 -17.7 0.2 -93.8 -3.693
22:53 1027 30.33 856 25.28 -14.8 5.4 79 -17.6 0.3 -93.8 -3.693
22:54 1027 30.33 856 25.28 -14.7 5.5 78 -17.7 0.1 -93.8 -3.693
22:55 1027 30.33 856 25.28 -14.7 5.6 78 -17.8 0 -93.8 -3.693
22:56 1027 30.33 856 25.28 -14.7 5.5 77 -17.9 -0.2 -93.8 -3.693
22:57 1027 30.33 856 25.28 -14.8 5.4 78 -17.9 -0.2 -93.8 -3.693
22:58 1027 30.33 856 25.28 -14.8 5.3 78 -17.8 -0 -93.8 -3.693
22:59 1027 30.33 856 25.28 -14.8 5.3 78 -17.8 -0 -93.8 -3.693
23:00 1027 30.33 856 25.28 -14.9 5.3 80 -17.6 0.3 -93.8 -3.693
23:01 1027 30.33 856 25.28 -14.8 5.4 81 -17.3 0.8 -93.8 -3.693
23:02 1027 30.33 856 25.28 -14.6 5.6 82 -17 1.4 -93.8 -3.693
23:03 1027 30.33 856 25.28 -14.4 6.1 82 -16.8 1.7 -93.8 -3.693
23:04 1027 30.33 856 25.28 -14.2 6.4 80 -16.9 1.5 -93.8 -3.693
23:05 1027 30.33 856 25.28 -14.1 6.7 80 -16.8 1.7 -93.8 -3.693
23:06 1027 30.33 856 25.28 -13.9 7 79 -16.8 1.8 -93.8 -3.693
23:07 1027 30.33 856 25.28 -13.7 7.3 79 -16.7 2 -93.8 -3.693
23:08 1027 30.33 856 25.28 -13.6 7.5 78 -16.6 2.1 -93.8 -3.693
23:09 1027 30.33 856 25.28 -13.6 7.6 78 -16.7 1.9 -93.8 -3.693
23:10 1027 30.33 856 25.28 -13.6 7.5 78 -16.7 1.9 -93.8 -3.693
23:11 1027 30.33 856 25.28 -13.6 7.5 78 -16.7 1.9 -93.8 -3.693
23:12 1027 30.33 856 25.28 -13.6 7.5 78 -16.7 1.9 -93.8 -3.693
23:13 1027 30.33 856 25.28 -13.6 7.5 77 -16.8 1.7 -93.8 -3.693
23:14 1027 30.33 856 25.28 -13.7 7.4 77 -16.8 1.7 -93.8 -3.693
23:15 1027 30.33 856 25.28 -13.6 7.5 77 -16.9 1.6 -93.8 -3.693
23:16 1027 30.33 856 25.28 -13.5 7.6 76 -16.9 1.6 -93.8 -3.693
23:17 1027 30.33 856 25.28 -13.5 7.7 76 -16.9 1.6 -93.8 -3.693
23:18 1027 30.33 856 25.28 -13.4 7.8 76 -16.8 1.7 -93.8 -3.693
23:19 1027 30.33 856 25.28 -13.3 8 75 -16.8 1.7 -93.8 -3.693
23:20 1027 30.33 856 25.28 -13.3 8.1 75 -16.8 1.8 -93.8 -3.693
23:21 1027 30.33 856 25.28 -13.3 8.1 75 -16.9 1.6 -93.8 -3.693
23:22 1027 30.33 856 25.28 -13.4 8 75 -16.9 1.5 -93.8 -3.693
23:23 1027 30.33 856 25.28 -13.4 7.8 75 -17 1.4 -93.8 -3.693
23:24 1027 30.33 856 25.28 -13.5 7.6 75 -17 1.4 -93.8 -3.693
23:25 1027 30.33 856 25.28 -13.6 7.5 76 -17 1.3 -93.8 -3.693
23:26 1027 30.33 856 25.28 -13.7 7.4 76 -17 1.4 -93.8 -3.693
23:27 1027 30.33 856 25.28 -13.7 7.3 77 -16.9 1.5 -93.8 -3.693
23:28 1027 30.33 856 25.28 -13.7 7.3 77 -16.9 1.6 -93.8 -3.693
23:29 1027 30.33 856 25.28 -13.7 7.4 77 -16.9 1.6 -93.8 -3.693
23:30 1027 30.33 856 25.28 -13.6 7.5 77 -16.9 1.7 -93.8 -3.693
23:31 1027 30.33 856 25.28 -13.6 7.5 77 -16.8 1.7 -93.8 -3.693
23:32 1027 30.33 856 25.28 -13.5 7.7 77 -16.8 1.7 -93.8 -3.693
23:33 1027 30.33 856 25.28 -13.5 7.8 77 -16.8 1.8 -93.8 -3.693
23:34 1027 30.33 856 25.28 -13.4 8 76 -16.7 1.9 -93.8 -3.693
23:35 1027 30.33 856 25.28 -13.2 8.3 75 -16.8 1.8 -93.8 -3.693
23:36 1027 30.33 856 25.28 -13.1 8.4 74 -16.9 1.6 -93.8 -3.693
23:37 1027 30.33 856 25.28 -13.1 8.4 74 -16.8 1.7 -93.8 -3.693
23:38 1027 30.33 856 25.28 -13.1 8.4 74 -16.9 1.6 -93.8 -3.693
23:39 1027 30.33 856 25.28 -13.2 8.3 74 -16.8 1.7 -93.8 -3.693
23:40 1027 30.33 856 25.28 -13.3 8 76 -16.8 1.8 -93.8 -3.693
23:41 1027 30.33 856 25.28 -13.5 7.7 76 -16.8 1.7 -93.8 -3.693
23:42 1027 30.33 856 25.28 -13.6 7.4 76 -17 1.4 -93.8 -3.693
23:43 1027 30.33 856 25.28 -13.8 7.2 78 -16.9 1.6 -93.8 -3.693
23:44 1027 30.33 856 25.28 -13.8 7.1 77 -17 1.5 -93.8 -3.693
23:45 1027 30.33 856 25.28 -13.8 7.2 77 -17.1 1.3 -93.8 -3.693
23:46 1027 30.33 856 25.28 -13.8 7.1 77 -17 1.4 -93.8 -3.693
23:47 1027 30.33 856 25.28 -13.8 7.1 77 -17 1.4 -93.8 -3.693
23:48 1027 30.33 856 25.28 -13.9 7 76 -17.2 1 -93.8 -3.693
23:49 1027 30.33 856 25.28 -14.1 6.7 77 -17.3 0.9 -93.8 -3.693
23:50 1027 30.33 856 25.28 -14.1 6.6 78 -17.2 1.1 -93.8 -3.693
23:51 1027 30.33 856 25.28 -14.1 6.6 78 -17.1 1.2 -93.8 -3.693
23:52 1027 30.33 856 25.28 -14 6.7 79 -17 1.4 -93.8 -3.693
23:53 1027 30.33 856 25.28 -14 6.8 78 -17 1.4 -93.8 -3.693
23:54 1027 30.33 856 25.28 -13.9 7 77 -17 1.3 -93.8 -3.693
23:55 1027 30.33 856 25.28 -13.9 7 77 -17.1 1.2 -93.8 -3.693
23:56 1027 30.33 856 25.28 -13.8 7.1 76 -17.1 1.2 -93.8 -3.693
23:57 1027 30.33 856 25.28 -13.8 7.2 76 -17.2 1.1 -93.8 -3.693
23:58 1027 30.33 856 25.28 -13.7 7.3 75 -17.2 1 -93.8 -3.693
23:59 1027 30.33 856 25.28 -13.7 7.3 75 -17.2 1 -93.8 -3.693
24:00 1027 30.33 856 25.28 -13.7 7.4 76 -17.1 1.2 -93.8 -3.693